Time,TemperatureF,DewpointF,PressureIn,WindDirection,WindDirectionDegrees,WindSpeedMPH,WindSpeedGustMPH,Humidity,HourlyPrecipIn,Conditions,Clouds,dailyrainin,SoftwareType,DateUTC
2013-08-12 00:01:00,74.1,72.3,30.13,North,5,0.0,9.0,94,0.00,,,0.02,Wunderground v.1.15,2013-08-12 04:01:00,
2013-08-12 00:02:00,74.0,72.2,30.13,North,5,0.0,9.0,94,0.00,,,0.00,Wunderground v.1.15,2013-08-12 04:02:00,
2013-08-12 00:03:00,74.0,72.2,30.13,North,5,0.0,9.0,94,0.00,,,0.00,Wunderground v.1.15,2013-08-12 04:03:00,
2013-08-12 00:04:00,74.0,72.2,30.13,North,5,0.0,9.0,94,0.00,,,0.00,Wunderground v.1.15,2013-08-12 04:04:00,
2013-08-12 00:06:00,74.0,72.5,30.13,North,5,0.0,9.0,95,0.00,,,0.00,Wunderground v.1.15,2013-08-12 04:06:00,
2013-08-12 00:09:00,74.1,72.6,30.13,North,5,0.0,9.0,95,0.00,,,0.00,Wunderground v.1.15,2013-08-12 04:09:00,
2013-08-12 00:11:00,74.2,72.7,30.13,North,5,0.0,9.0,95,0.00,,,0.00,Wunderground v.1.15,2013-08-12 04:11:00,
2013-08-12 00:13:00,74.3,72.8,30.13,North,5,0.0,9.0,95,0.00,,,0.00,Wunderground v.1.15,2013-08-12 04:13:00,
2013-08-12 00:15:00,74.3,72.8,30.13,North,5,0.0,9.0,95,0.00,,,0.00,Wunderground v.1.15,2013-08-12 04:15:00,
2013-08-12 00:16:00,74.3,72.8,30.13,North,5,0.0,9.0,95,0.00,,,0.00,Wunderground v.1.15,2013-08-12 04:16:00,
2013-08-12 00:19:00,74.3,72.8,30.13,North,5,0.0,9.0,95,0.00,,,0.00,Wunderground v.1.15,2013-08-12 04:19:00,
2013-08-12 00:21:00,74.3,72.8,30.13,North,5,0.0,9.0,95,0.00,,,0.00,Wunderground v.1.15,2013-08-12 04:21:00,
2013-08-12 00:22:00,74.2,72.7,30.13,North,5,0.0,9.0,95,0.00,,,0.00,Wunderground v.1.15,2013-08-12 04:22:00,
2013-08-12 00:23:00,74.2,72.4,30.13,North,5,0.0,9.0,94,0.00,,,0.00,Wunderground v.1.15,2013-08-12 04:23:00,
2013-08-12 00:27:00,74.1,72.6,30.13,North,5,0.0,9.0,95,0.00,,,0.00,Wunderground v.1.15,2013-08-12 04:27:00,
2013-08-12 00:28:00,74.2,72.7,30.13,North,5,0.0,9.0,95,0.00,,,0.00,Wunderground v.1.15,2013-08-12 04:28:00,
2013-08-12 00:30:00,74.2,72.7,30.13,North,5,0.0,9.0,95,0.00,,,0.00,Wunderground v.1.15,2013-08-12 04:30:00,
2013-08-12 00:32:00,74.1,72.6,30.13,North,5,0.0,9.0,95,0.00,,,0.00,Wunderground v.1.15,2013-08-12 04:32:00,
2013-08-12 00:36:00,74.0,72.5,30.13,North,5,0.0,9.0,95,0.00,,,0.00,Wunderground v.1.15,2013-08-12 04:36:00,
2013-08-12 00:37:00,73.9,72.4,30.13,North,5,0.0,9.0,95,0.00,,,0.00,Wunderground v.1.15,2013-08-12 04:37:00,
2013-08-12 00:39:00,73.9,72.4,30.13,North,5,0.0,9.0,95,0.00,,,0.00,Wunderground v.1.15,2013-08-12 04:39:00,
2013-08-12 00:41:00,73.7,72.2,30.13,North,5,0.0,9.0,95,0.00,,,0.00,Wunderground v.1.15,2013-08-12 04:41:00,
2013-08-12 00:43:00,73.6,72.1,30.12,North,5,0.0,9.0,95,0.00,,,0.00,Wunderground v.1.15,2013-08-12 04:43:00,
2013-08-12 00:45:00,73.5,72.3,30.12,North,5,0.0,9.0,96,0.00,,,0.00,Wunderground v.1.15,2013-08-12 04:45:00,
2013-08-12 00:47:00,73.6,72.4,30.12,North,5,0.0,9.0,96,0.00,,,0.00,Wunderground v.1.15,2013-08-12 04:47:00,
2013-08-12 00:51:00,73.6,72.7,30.12,North,5,0.0,9.0,97,0.00,,,0.00,Wunderground v.1.15,2013-08-12 04:51:00,
2013-08-12 00:52:00,73.6,72.7,30.12,North,5,0.0,9.0,97,0.00,,,0.00,Wunderground v.1.15,2013-08-12 04:52:00,
2013-08-12 00:54:00,73.6,72.4,30.12,North,5,0.0,9.0,96,0.00,,,0.00,Wunderground v.1.15,2013-08-12 04:54:00,
2013-08-12 00:57:00,73.6,72.4,30.12,North,5,0.0,9.0,96,0.00,,,0.00,Wunderground v.1.15,2013-08-12 04:57:00,
2013-08-12 00:59:00,73.5,72.3,30.12,North,5,0.0,9.0,96,0.00,,,0.00,Wunderground v.1.15,2013-08-12 04:59:00,
2013-08-12 01:01:00,73.5,72.3,30.12,North,5,0.0,9.0,96,0.00,,,0.00,Wunderground v.1.15,2013-08-12 05:01:00,
2013-08-12 01:03:00,73.4,72.2,30.12,North,5,0.0,9.0,96,0.00,,,0.00,Wunderground v.1.15,2013-08-12 05:03:00,
2013-08-12 01:04:00,73.4,72.2,30.12,North,5,0.0,9.0,96,0.00,,,0.00,Wunderground v.1.15,2013-08-12 05:04:00,
2013-08-12 01:06:00,73.3,72.1,30.12,North,5,0.0,9.0,96,0.00,,,0.00,Wunderground v.1.15,2013-08-12 05:06:00,
2013-08-12 01:09:00,73.3,72.1,30.12,North,5,0.0,9.0,96,0.00,,,0.00,Wunderground v.1.15,2013-08-12 05:09:00,
2013-08-12 01:10:00,73.3,72.1,30.12,North,5,0.0,9.0,96,0.00,,,0.00,Wunderground v.1.15,2013-08-12 05:10:00,
2013-08-12 01:11:00,73.3,72.4,30.12,North,5,0.0,9.0,97,0.00,,,0.00,Wunderground v.1.15,2013-08-12 05:11:00,
2013-08-12 01:14:00,73.3,72.4,30.12,North,5,0.0,9.0,97,0.00,,,0.00,Wunderground v.1.15,2013-08-12 05:14:00,
2013-08-12 01:16:00,73.3,72.4,30.12,North,5,0.0,9.0,97,0.00,,,0.00,Wunderground v.1.15,2013-08-12 05:16:00,
2013-08-12 01:18:00,73.3,72.4,30.12,North,5,0.0,9.0,97,0.00,,,0.00,Wunderground v.1.15,2013-08-12 05:18:00,
2013-08-12 01:21:00,73.2,72.3,30.12,North,5,0.0,9.0,97,0.00,,,0.00,Wunderground v.1.15,2013-08-12 05:21:00,
2013-08-12 01:23:00,73.1,71.9,30.12,North,5,0.0,9.0,96,0.00,,,0.00,Wunderground v.1.15,2013-08-12 05:23:00,
2013-08-12 01:24:00,73.0,71.8,30.12,North,5,0.0,9.0,96,0.00,,,0.00,Wunderground v.1.15,2013-08-12 05:24:00,
2013-08-12 01:25:00,73.0,72.1,30.11,North,5,0.0,9.0,97,0.00,,,0.00,Wunderground v.1.15,2013-08-12 05:25:00,
2013-08-12 01:27:00,73.0,72.1,30.12,North,5,0.0,9.0,97,0.00,,,0.00,Wunderground v.1.15,2013-08-12 05:27:00,
2013-08-12 01:30:00,73.0,72.1,30.12,North,5,0.0,9.0,97,0.00,,,0.00,Wunderground v.1.15,2013-08-12 05:30:00,
2013-08-12 01:31:00,73.0,72.1,30.12,North,5,0.0,9.0,97,0.00,,,0.00,Wunderground v.1.15,2013-08-12 05:31:00,
2013-08-12 01:32:00,72.9,72.0,30.12,North,5,0.0,9.0,97,0.00,,,0.00,Wunderground v.1.15,2013-08-12 05:32:00,
2013-08-12 01:35:00,72.8,71.9,30.12,North,5,0.0,9.0,97,0.00,,,0.00,Wunderground v.1.15,2013-08-12 05:35:00,
2013-08-12 01:38:00,72.8,71.9,30.12,North,5,0.0,9.0,97,0.00,,,0.00,Wunderground v.1.15,2013-08-12 05:38:00,
2013-08-12 01:41:00,72.9,72.3,30.12,North,5,0.0,9.0,98,0.00,,,0.00,Wunderground v.1.15,2013-08-12 05:41:00,
2013-08-12 01:43:00,73.0,72.4,30.12,North,5,0.0,9.0,98,0.00,,,0.00,Wunderground v.1.15,2013-08-12 05:43:00,
2013-08-12 01:44:00,73.0,72.4,30.12,North,5,0.0,9.0,98,0.00,,,0.00,Wunderground v.1.15,2013-08-12 05:44:00,
2013-08-12 01:46:00,73.0,72.4,30.12,North,5,0.0,9.0,98,0.00,,,0.00,Wunderground v.1.15,2013-08-12 05:46:00,
2013-08-12 01:47:00,73.0,72.4,30.12,North,5,0.0,9.0,98,0.00,,,0.00,Wunderground v.1.15,2013-08-12 05:47:00,
2013-08-12 01:49:00,73.0,72.4,30.12,North,5,0.0,9.0,98,0.00,,,0.00,Wunderground v.1.15,2013-08-12 05:49:00,
2013-08-12 01:52:00,73.0,72.4,30.12,North,5,0.0,9.0,98,0.00,,,0.00,Wunderground v.1.15,2013-08-12 05:52:00,
2013-08-12 01:54:00,73.0,72.4,30.12,North,5,0.0,9.0,98,0.00,,,0.00,Wunderground v.1.15,2013-08-12 05:54:00,
2013-08-12 01:55:00,73.0,72.4,30.12,North,5,0.0,9.0,98,0.00,,,0.00,Wunderground v.1.15,2013-08-12 05:55:00,
2013-08-12 01:56:00,73.0,72.4,30.12,North,5,0.0,9.0,98,0.00,,,0.00,Wunderground v.1.15,2013-08-12 05:56:00,
2013-08-12 01:59:00,73.0,72.4,30.12,North,5,0.0,9.0,98,0.00,,,0.00,Wunderground v.1.15,2013-08-12 05:59:00,
2013-08-12 02:01:00,73.0,72.4,30.12,North,5,0.0,9.0,98,0.00,,,0.00,Wunderground v.1.15,2013-08-12 06:01:00,
2013-08-12 02:04:00,73.0,72.4,30.12,North,5,0.0,9.0,98,0.00,,,0.00,Wunderground v.1.15,2013-08-12 06:04:00,
2013-08-12 02:05:00,72.9,72.3,30.12,North,5,0.0,9.0,98,0.00,,,0.00,Wunderground v.1.15,2013-08-12 06:05:00,
2013-08-12 02:07:00,72.9,72.3,30.12,North,5,0.0,9.0,98,0.00,,,0.00,Wunderground v.1.15,2013-08-12 06:07:00,
2013-08-12 02:11:00,72.8,72.2,30.12,North,5,0.0,9.0,98,0.00,,,0.00,Wunderground v.1.15,2013-08-12 06:11:00,
2013-08-12 02:12:00,72.8,72.2,30.12,North,5,0.0,9.0,98,0.00,,,0.00,Wunderground v.1.15,2013-08-12 06:12:00,
2013-08-12 02:13:00,72.7,72.1,30.12,North,5,0.0,9.0,98,0.00,,,0.00,Wunderground v.1.15,2013-08-12 06:13:00,
2013-08-12 02:14:00,72.6,72.0,30.12,North,5,0.0,9.0,98,0.00,,,0.00,Wunderground v.1.15,2013-08-12 06:14:00,
2013-08-12 02:16:00,72.6,72.0,30.12,North,5,0.0,9.0,98,0.00,,,0.00,Wunderground v.1.15,2013-08-12 06:16:00,
2013-08-12 02:18:00,72.4,71.5,30.12,North,5,0.0,9.0,97,0.00,,,0.00,Wunderground v.1.15,2013-08-12 06:18:00,
2013-08-12 02:19:00,72.4,71.5,30.12,North,5,0.0,9.0,97,0.00,,,0.00,Wunderground v.1.15,2013-08-12 06:19:00,
2013-08-12 02:21:00,72.3,71.4,30.12,North,5,0.0,9.0,97,0.00,,,0.00,Wunderground v.1.15,2013-08-12 06:21:00,
2013-08-12 02:23:00,72.2,71.3,30.12,North,5,0.0,9.0,97,0.00,,,0.00,Wunderground v.1.15,2013-08-12 06:23:00,
2013-08-12 02:24:00,72.2,71.3,30.12,North,5,0.0,9.0,97,0.00,,,0.00,Wunderground v.1.15,2013-08-12 06:24:00,
2013-08-12 02:26:00,72.1,71.2,30.12,North,5,0.0,9.0,97,0.00,,,0.00,Wunderground v.1.15,2013-08-12 06:26:00,
2013-08-12 02:29:00,72.1,71.2,30.12,North,5,0.0,9.0,97,0.00,,,0.00,Wunderground v.1.15,2013-08-12 06:29:00,
2013-08-12 02:30:00,72.0,71.1,30.12,North,5,0.0,9.0,97,0.00,,,0.00,Wunderground v.1.15,2013-08-12 06:30:00,
2013-08-12 02:31:00,72.0,71.1,30.12,North,5,0.0,9.0,97,0.00,,,0.00,Wunderground v.1.15,2013-08-12 06:31:00,
2013-08-12 02:32:00,72.0,71.1,30.12,North,5,0.0,9.0,97,0.00,,,0.00,Wunderground v.1.15,2013-08-12 06:32:00,
2013-08-12 02:33:00,72.0,71.1,30.12,North,5,0.0,9.0,97,0.00,,,0.00,Wunderground v.1.15,2013-08-12 06:33:00,
2013-08-12 02:36:00,71.9,71.0,30.12,North,5,0.0,9.0,97,0.00,,,0.00,Wunderground v.1.15,2013-08-12 06:36:00,
2013-08-12 02:37:00,71.9,71.0,30.12,North,5,0.0,9.0,97,0.00,,,0.00,Wunderground v.1.15,2013-08-12 06:37:00,
2013-08-12 02:38:00,71.9,71.0,30.12,North,5,0.0,9.0,97,0.00,,,0.00,Wunderground v.1.15,2013-08-12 06:38:00,
2013-08-12 02:39:00,71.8,70.9,30.12,North,5,0.0,9.0,97,0.00,,,0.00,Wunderground v.1.15,2013-08-12 06:39:00,
2013-08-12 02:42:00,71.8,70.9,30.12,North,5,0.0,9.0,97,0.00,,,0.00,Wunderground v.1.15,2013-08-12 06:42:00,
2013-08-12 02:44:00,71.7,70.8,30.12,North,5,0.0,9.0,97,0.00,,,0.00,Wunderground v.1.15,2013-08-12 06:44:00,
2013-08-12 02:45:00,71.7,70.8,30.12,North,5,0.0,9.0,97,0.00,,,0.00,Wunderground v.1.15,2013-08-12 06:45:00,
2013-08-12 02:47:00,71.6,70.7,30.12,North,5,0.0,9.0,97,0.00,,,0.00,Wunderground v.1.15,2013-08-12 06:47:00,
2013-08-12 02:49:00,71.6,70.7,30.12,North,5,0.0,9.0,97,0.00,,,0.00,Wunderground v.1.15,2013-08-12 06:49:00,
2013-08-12 02:52:00,71.5,70.6,30.12,North,5,0.0,9.0,97,0.00,,,0.00,Wunderground v.1.15,2013-08-12 06:52:00,
2013-08-12 02:53:00,71.5,70.6,30.12,North,5,0.0,9.0,97,0.00,,,0.00,Wunderground v.1.15,2013-08-12 06:53:00,
2013-08-12 02:54:00,71.5,70.6,30.12,North,5,0.0,9.0,97,0.00,,,0.00,Wunderground v.1.15,2013-08-12 06:54:00,
2013-08-12 02:55:00,71.5,70.6,30.12,North,5,0.0,9.0,97,0.00,,,0.00,Wunderground v.1.15,2013-08-12 06:55:00,
2013-08-12 02:58:00,71.3,70.7,30.12,North,5,0.0,9.0,98,0.00,,,0.00,Wunderground v.1.15,2013-08-12 06:58:00,
2013-08-12 02:59:00,71.3,70.7,30.11,North,5,0.0,9.0,98,0.00,,,0.00,Wunderground v.1.15,2013-08-12 06:59:00,
2013-08-12 03:03:00,71.2,70.6,30.12,North,5,0.0,9.0,98,0.00,,,0.00,Wunderground v.1.15,2013-08-12 07:03:00,
2013-08-12 03:04:00,71.2,70.6,30.12,North,5,0.0,9.0,98,0.00,,,0.00,Wunderground v.1.15,2013-08-12 07:04:00,
2013-08-12 03:05:00,71.2,70.6,30.12,North,5,0.0,9.0,98,0.00,,,0.00,Wunderground v.1.15,2013-08-12 07:05:00,
2013-08-12 03:09:00,71.0,70.1,30.12,North,5,0.0,9.0,97,0.00,,,0.00,Wunderground v.1.15,2013-08-12 07:09:00,
2013-08-12 03:11:00,71.0,70.4,30.12,North,5,0.0,9.0,98,0.00,,,0.00,Wunderground v.1.15,2013-08-12 07:11:00,
2013-08-12 03:13:00,70.9,70.3,30.12,North,5,0.0,9.0,98,0.00,,,0.00,Wunderground v.1.15,2013-08-12 07:13:00,
2013-08-12 03:14:00,70.9,70.3,30.12,North,5,0.0,9.0,98,0.00,,,0.00,Wunderground v.1.15,2013-08-12 07:14:00,
2013-08-12 03:15:00,70.9,70.3,30.12,North,5,0.0,9.0,98,0.00,,,0.00,Wunderground v.1.15,2013-08-12 07:15:00,
2013-08-12 03:16:00,70.9,70.3,30.12,North,5,0.0,9.0,98,0.00,,,0.00,Wunderground v.1.15,2013-08-12 07:16:00,
2013-08-12 03:19:00,70.8,70.2,30.11,North,5,0.0,9.0,98,0.00,,,0.00,Wunderground v.1.15,2013-08-12 07:19:00,
2013-08-12 03:21:00,70.8,70.2,30.11,North,5,0.0,9.0,98,0.00,,,0.00,Wunderground v.1.15,2013-08-12 07:21:00,
2013-08-12 03:23:00,70.8,70.2,30.11,North,5,0.0,9.0,98,0.00,,,0.00,Wunderground v.1.15,2013-08-12 07:23:00,
2013-08-12 03:24:00,70.8,70.2,30.11,North,5,0.0,9.0,98,0.00,,,0.00,Wunderground v.1.15,2013-08-12 07:24:00,
2013-08-12 03:25:00,70.8,70.2,30.11,North,5,0.0,9.0,98,0.00,,,0.00,Wunderground v.1.15,2013-08-12 07:25:00,
2013-08-12 03:29:00,70.8,70.2,30.11,North,5,0.0,9.0,98,0.00,,,0.00,Wunderground v.1.15,2013-08-12 07:29:00,
2013-08-12 03:30:00,70.8,70.2,30.11,North,5,0.0,9.0,98,0.00,,,0.00,Wunderground v.1.15,2013-08-12 07:30:00,
2013-08-12 03:31:00,70.7,70.1,30.11,North,5,0.0,9.0,98,0.00,,,0.00,Wunderground v.1.15,2013-08-12 07:31:00,
2013-08-12 03:32:00,70.7,70.1,30.12,North,5,0.0,9.0,98,0.00,,,0.00,Wunderground v.1.15,2013-08-12 07:32:00,
2013-08-12 03:34:00,70.7,70.1,30.12,North,5,0.0,9.0,98,0.00,,,0.00,Wunderground v.1.15,2013-08-12 07:34:00,
2013-08-12 03:36:00,70.7,70.1,30.12,North,5,0.0,9.0,98,0.00,,,0.00,Wunderground v.1.15,2013-08-12 07:36:00,
2013-08-12 03:37:00,70.6,70.0,30.12,North,5,0.0,9.0,98,0.00,,,0.00,Wunderground v.1.15,2013-08-12 07:37:00,
2013-08-12 03:38:00,70.6,70.0,30.12,North,5,0.0,9.0,98,0.00,,,0.00,Wunderground v.1.15,2013-08-12 07:38:00,
2013-08-12 03:40:00,70.6,70.0,30.12,North,5,0.0,9.0,98,0.00,,,0.00,Wunderground v.1.15,2013-08-12 07:40:00,
2013-08-12 03:41:00,70.6,70.0,30.12,North,5,0.0,9.0,98,0.00,,,0.00,Wunderground v.1.15,2013-08-12 07:41:00,
2013-08-12 03:44:00,70.5,69.9,30.12,North,5,0.0,9.0,98,0.00,,,0.00,Wunderground v.1.15,2013-08-12 07:44:00,
2013-08-12 03:46:00,70.6,70.0,30.12,North,5,0.0,9.0,98,0.00,,,0.00,Wunderground v.1.15,2013-08-12 07:46:00,
2013-08-12 03:47:00,70.6,70.0,30.12,North,5,0.0,9.0,98,0.00,,,0.00,Wunderground v.1.15,2013-08-12 07:47:00,
2013-08-12 03:49:00,70.6,70.0,30.12,North,5,0.0,9.0,98,0.00,,,0.00,Wunderground v.1.15,2013-08-12 07:49:00,
2013-08-12 03:50:00,70.6,70.0,30.12,North,5,0.0,9.0,98,0.00,,,0.00,Wunderground v.1.15,2013-08-12 07:50:00,
2013-08-12 03:53:00,70.6,70.0,30.11,North,5,0.0,9.0,98,0.00,,,0.00,Wunderground v.1.15,2013-08-12 07:53:00,
2013-08-12 03:55:00,70.6,70.0,30.11,North,5,0.0,9.0,98,0.00,,,0.00,Wunderground v.1.15,2013-08-12 07:55:00,
2013-08-12 03:57:00,70.6,70.0,30.12,North,5,0.0,9.0,98,0.00,,,0.00,Wunderground v.1.15,2013-08-12 07:57:00,
2013-08-12 03:58:00,70.5,69.9,30.12,North,5,0.0,9.0,98,0.00,,,0.00,Wunderground v.1.15,2013-08-12 07:58:00,
2013-08-12 04:02:00,70.5,69.9,30.11,North,5,0.0,9.0,98,0.00,,,0.00,Wunderground v.1.15,2013-08-12 08:02:00,
2013-08-12 04:03:00,70.5,69.9,30.11,North,5,0.0,9.0,98,0.00,,,0.00,Wunderground v.1.15,2013-08-12 08:03:00,
2013-08-12 04:05:00,70.4,69.8,30.12,North,5,0.0,9.0,98,0.00,,,0.00,Wunderground v.1.15,2013-08-12 08:05:00,
2013-08-12 04:06:00,70.4,69.8,30.11,North,5,0.0,9.0,98,0.00,,,0.00,Wunderground v.1.15,2013-08-12 08:06:00,
2013-08-12 04:07:00,70.4,69.8,30.11,North,5,0.0,9.0,98,0.00,,,0.00,Wunderground v.1.15,2013-08-12 08:07:00,
2013-08-12 04:09:00,70.3,69.7,30.11,North,5,0.0,9.0,98,0.00,,,0.00,Wunderground v.1.15,2013-08-12 08:09:00,
2013-08-12 04:11:00,70.3,69.7,30.11,North,5,0.0,9.0,98,0.00,,,0.00,Wunderground v.1.15,2013-08-12 08:11:00,
2013-08-12 04:13:00,70.2,69.6,30.11,North,5,0.0,9.0,98,0.00,,,0.00,Wunderground v.1.15,2013-08-12 08:13:00,
2013-08-12 04:14:00,70.2,69.6,30.11,North,5,0.0,9.0,98,0.00,,,0.00,Wunderground v.1.15,2013-08-12 08:14:00,
2013-08-12 04:18:00,70.2,69.6,30.11,North,5,0.0,9.0,98,0.00,,,0.00,Wunderground v.1.15,2013-08-12 08:18:00,
2013-08-12 04:19:00,70.2,69.6,30.11,North,5,0.0,9.0,98,0.00,,,0.00,Wunderground v.1.15,2013-08-12 08:19:00,
2013-08-12 04:22:00,70.1,69.5,30.11,North,5,0.0,9.0,98,0.00,,,0.00,Wunderground v.1.15,2013-08-12 08:22:00,
2013-08-12 04:25:00,70.0,69.4,30.11,North,5,0.0,9.0,98,0.00,,,0.00,Wunderground v.1.15,2013-08-12 08:25:00,
2013-08-12 04:26:00,70.0,69.4,30.11,North,5,0.0,9.0,98,0.00,,,0.00,Wunderground v.1.15,2013-08-12 08:26:00,
2013-08-12 04:27:00,70.0,69.4,30.11,North,5,0.0,9.0,98,0.00,,,0.00,Wunderground v.1.15,2013-08-12 08:27:00,
2013-08-12 04:31:00,69.9,69.3,30.11,North,5,0.0,9.0,98,0.00,,,0.00,Wunderground v.1.15,2013-08-12 08:31:00,
2013-08-12 04:32:00,69.9,69.3,30.11,North,5,0.0,9.0,98,0.00,,,0.00,Wunderground v.1.15,2013-08-12 08:32:00,
2013-08-12 04:34:00,69.8,69.2,30.11,North,5,0.0,9.0,98,0.00,,,0.00,Wunderground v.1.15,2013-08-12 08:34:00,
2013-08-12 04:35:00,69.8,69.2,30.11,North,5,0.0,9.0,98,0.00,,,0.00,Wunderground v.1.15,2013-08-12 08:35:00,
2013-08-12 04:37:00,69.7,69.1,30.12,North,5,0.0,9.0,98,0.00,,,0.00,Wunderground v.1.15,2013-08-12 08:37:00,
2013-08-12 04:38:00,69.6,69.0,30.12,North,5,0.0,9.0,98,0.00,,,0.00,Wunderground v.1.15,2013-08-12 08:38:00,
2013-08-12 04:40:00,69.5,68.9,30.12,North,5,0.0,9.0,98,0.00,,,0.00,Wunderground v.1.15,2013-08-12 08:40:00,
2013-08-12 04:41:00,69.5,68.9,30.12,North,5,0.0,9.0,98,0.00,,,0.00,Wunderground v.1.15,2013-08-12 08:41:00,
2013-08-12 04:42:00,69.5,68.9,30.12,North,5,0.0,9.0,98,0.00,,,0.00,Wunderground v.1.15,2013-08-12 08:42:00,
2013-08-12 04:43:00,69.4,68.8,30.12,North,5,0.0,9.0,98,0.00,,,0.00,Wunderground v.1.15,2013-08-12 08:43:00,
2013-08-12 04:45:00,69.3,68.7,30.12,North,5,0.0,9.0,98,0.00,,,0.00,Wunderground v.1.15,2013-08-12 08:45:00,
2013-08-12 04:46:00,69.3,68.7,30.12,North,5,0.0,9.0,98,0.00,,,0.00,Wunderground v.1.15,2013-08-12 08:46:00,
2013-08-12 04:48:00,69.5,69.2,30.12,North,5,0.0,9.0,99,0.00,,,0.00,Wunderground v.1.15,2013-08-12 08:48:00,
2013-08-12 04:52:00,69.8,69.5,30.12,WSW,238,0.0,9.0,99,0.00,,,0.00,Wunderground v.1.15,2013-08-12 08:52:00,
2013-08-12 04:53:00,69.8,69.5,30.12,WSW,238,0.0,9.0,99,0.00,,,0.00,Wunderground v.1.15,2013-08-12 08:53:00,
2013-08-12 04:56:00,69.6,69.0,30.12,WSW,238,0.0,9.0,98,0.00,,,0.00,Wunderground v.1.15,2013-08-12 08:56:00,
2013-08-12 04:57:00,69.5,68.9,30.12,WSW,238,0.0,9.0,98,0.00,,,0.00,Wunderground v.1.15,2013-08-12 08:57:00,
2013-08-12 04:58:00,69.4,69.1,30.12,WSW,238,0.0,9.0,99,0.00,,,0.00,Wunderground v.1.15,2013-08-12 08:58:00,
2013-08-12 05:01:00,69.4,69.1,30.12,WSW,238,0.0,9.0,99,0.00,,,0.00,Wunderground v.1.15,2013-08-12 09:01:00,
2013-08-12 05:02:00,69.3,69.0,30.12,WSW,238,0.0,9.0,99,0.00,,,0.00,Wunderground v.1.15,2013-08-12 09:02:00,
2013-08-12 05:04:00,69.3,69.0,30.12,WSW,238,0.0,9.0,99,0.00,,,0.00,Wunderground v.1.15,2013-08-12 09:04:00,
2013-08-12 05:07:00,69.3,69.0,30.12,WSW,238,0.0,9.0,99,0.00,,,0.00,Wunderground v.1.15,2013-08-12 09:07:00,
2013-08-12 05:09:00,69.2,68.9,30.12,WSW,238,0.0,9.0,99,0.00,,,0.00,Wunderground v.1.15,2013-08-12 09:09:00,
2013-08-12 05:10:00,69.2,68.9,30.12,WSW,238,0.0,9.0,99,0.00,,,0.00,Wunderground v.1.15,2013-08-12 09:10:00,
2013-08-12 05:12:00,69.1,68.5,30.12,WSW,238,0.0,9.0,98,0.00,,,0.00,Wunderground v.1.15,2013-08-12 09:12:00,
2013-08-12 05:14:00,69.0,68.4,30.12,WSW,238,0.0,9.0,98,0.00,,,0.00,Wunderground v.1.15,2013-08-12 09:14:00,
2013-08-12 05:15:00,69.0,68.4,30.12,WSW,238,0.0,9.0,98,0.00,,,0.00,Wunderground v.1.15,2013-08-12 09:15:00,
2013-08-12 05:20:00,68.8,68.5,30.11,WSW,238,0.0,9.0,99,0.00,,,0.00,Wunderground v.1.15,2013-08-12 09:20:00,
2013-08-12 05:21:00,68.8,68.5,30.11,WSW,238,0.0,9.0,99,0.00,,,0.00,Wunderground v.1.15,2013-08-12 09:21:00,
2013-08-12 05:22:00,68.8,68.5,30.11,WSW,238,0.0,9.0,99,0.00,,,0.00,Wunderground v.1.15,2013-08-12 09:22:00,
2013-08-12 05:26:00,68.6,68.3,30.11,WSW,238,0.0,9.0,99,0.00,,,0.00,Wunderground v.1.15,2013-08-12 09:26:00,
2013-08-12 05:28:00,68.6,68.3,30.11,WSW,238,0.0,9.0,99,0.00,,,0.00,Wunderground v.1.15,2013-08-12 09:28:00,
2013-08-12 05:30:00,68.6,68.3,30.11,WSW,238,0.0,9.0,99,0.00,,,0.00,Wunderground v.1.15,2013-08-12 09:30:00,
2013-08-12 05:31:00,68.5,68.2,30.11,WSW,238,0.0,9.0,99,0.00,,,0.00,Wunderground v.1.15,2013-08-12 09:31:00,
2013-08-12 05:33:00,68.5,68.2,30.11,WSW,238,0.0,9.0,99,0.00,,,0.00,Wunderground v.1.15,2013-08-12 09:33:00,
2013-08-12 05:35:00,68.4,68.1,30.11,WSW,238,0.0,9.0,99,0.00,,,0.00,Wunderground v.1.15,2013-08-12 09:35:00,
2013-08-12 05:36:00,68.4,68.1,30.11,WSW,238,0.0,9.0,99,0.00,,,0.00,Wunderground v.1.15,2013-08-12 09:36:00,
2013-08-12 05:37:00,68.3,68.0,30.11,WSW,238,0.0,9.0,99,0.00,,,0.00,Wunderground v.1.15,2013-08-12 09:37:00,
2013-08-12 05:40:00,68.2,67.9,30.11,WSW,238,0.0,9.0,99,0.00,,,0.00,Wunderground v.1.15,2013-08-12 09:40:00,
2013-08-12 05:41:00,68.2,67.9,30.11,WSW,238,0.0,9.0,99,0.00,,,0.00,Wunderground v.1.15,2013-08-12 09:41:00,
2013-08-12 05:42:00,68.1,67.8,30.11,WSW,238,0.0,9.0,99,0.00,,,0.00,Wunderground v.1.15,2013-08-12 09:42:00,
2013-08-12 05:43:00,68.1,67.8,30.11,WSW,238,0.0,9.0,99,0.00,,,0.00,Wunderground v.1.15,2013-08-12 09:43:00,
2013-08-12 05:46:00,67.9,67.6,30.11,WSW,238,0.0,9.0,99,0.00,,,0.00,Wunderground v.1.15,2013-08-12 09:46:00,
2013-08-12 05:47:00,67.9,67.6,30.11,WSW,238,0.0,9.0,99,0.00,,,0.00,Wunderground v.1.15,2013-08-12 09:47:00,
2013-08-12 05:48:00,67.9,67.6,30.11,WSW,238,0.0,9.0,99,0.00,,,0.00,Wunderground v.1.15,2013-08-12 09:48:00,
2013-08-12 05:49:00,67.9,67.6,30.11,WSW,238,0.0,9.0,99,0.00,,,0.00,Wunderground v.1.15,2013-08-12 09:49:00,
2013-08-12 05:50:00,67.9,67.6,30.11,WSW,238,0.0,9.0,99,0.00,,,0.00,Wunderground v.1.15,2013-08-12 09:50:00,
2013-08-12 05:51:00,67.8,67.5,30.11,WSW,238,0.0,9.0,99,0.00,,,0.00,Wunderground v.1.15,2013-08-12 09:51:00,
2013-08-12 05:55:00,67.9,67.6,30.11,WSW,238,0.0,9.0,99,0.00,,,0.00,Wunderground v.1.15,2013-08-12 09:55:00,
2013-08-12 05:56:00,67.9,67.6,30.11,WSW,238,0.0,9.0,99,0.00,,,0.00,Wunderground v.1.15,2013-08-12 09:56:00,
2013-08-12 05:57:00,67.9,67.6,30.11,WSW,238,0.0,9.0,99,0.00,,,0.00,Wunderground v.1.15,2013-08-12 09:57:00,
2013-08-12 06:02:00,67.7,67.4,30.12,WSW,238,0.0,9.0,99,0.00,,,0.00,Wunderground v.1.15,2013-08-12 10:02:00,
2013-08-12 06:03:00,67.6,67.3,30.12,WSW,238,0.0,9.0,99,0.00,,,0.00,Wunderground v.1.15,2013-08-12 10:03:00,
2013-08-12 06:04:00,67.6,67.3,30.11,WSW,238,0.0,9.0,99,0.00,,,0.00,Wunderground v.1.15,2013-08-12 10:04:00,
2013-08-12 06:08:00,67.6,67.3,30.11,WSW,238,0.0,9.0,99,0.00,,,0.00,Wunderground v.1.15,2013-08-12 10:08:00,
2013-08-12 06:09:00,67.6,67.3,30.11,WSW,238,0.0,9.0,99,0.00,,,0.00,Wunderground v.1.15,2013-08-12 10:09:00,
2013-08-12 06:10:00,67.6,67.3,30.11,WSW,238,0.0,9.0,99,0.00,,,0.00,Wunderground v.1.15,2013-08-12 10:10:00,
2013-08-12 06:11:00,67.5,67.2,30.11,WSW,238,0.0,9.0,99,0.00,,,0.00,Wunderground v.1.15,2013-08-12 10:11:00,
2013-08-12 06:16:00,67.4,67.1,30.11,WSW,238,0.0,9.0,99,0.00,,,0.00,Wunderground v.1.15,2013-08-12 10:16:00,
2013-08-12 06:19:00,67.4,67.1,30.11,WSW,238,0.0,9.0,99,0.00,,,0.00,Wunderground v.1.15,2013-08-12 10:19:00,
2013-08-12 06:21:00,67.3,67.0,30.11,WSW,238,0.0,9.0,99,0.00,,,0.00,Wunderground v.1.15,2013-08-12 10:21:00,
2013-08-12 06:23:00,67.2,66.9,30.11,WSW,238,0.0,9.0,99,0.00,,,0.00,Wunderground v.1.15,2013-08-12 10:23:00,
2013-08-12 06:24:00,67.2,66.9,30.11,WSW,238,0.0,9.0,99,0.00,,,0.00,Wunderground v.1.15,2013-08-12 10:24:00,
2013-08-12 06:27:00,67.1,66.8,30.11,WSW,238,0.0,9.0,99,0.00,,,0.00,Wunderground v.1.15,2013-08-12 10:27:00,
2013-08-12 06:28:00,67.0,66.7,30.11,WSW,238,0.0,9.0,99,0.00,,,0.00,Wunderground v.1.15,2013-08-12 10:28:00,
2013-08-12 06:30:00,67.0,66.7,30.11,WSW,238,0.0,9.0,99,0.00,,,0.00,Wunderground v.1.15,2013-08-12 10:30:00,
2013-08-12 06:32:00,67.0,66.7,30.11,WSW,238,0.0,9.0,99,0.00,,,0.00,Wunderground v.1.15,2013-08-12 10:32:00,
2013-08-12 06:33:00,67.0,66.7,30.11,WSW,238,0.0,9.0,99,0.00,,,0.00,Wunderground v.1.15,2013-08-12 10:33:00,
2013-08-12 06:36:00,66.9,66.6,30.11,WSW,238,0.0,9.0,99,0.00,,,0.00,Wunderground v.1.15,2013-08-12 10:36:00,
2013-08-12 06:37:00,66.9,66.6,30.11,WSW,238,0.0,9.0,99,0.00,,,0.00,Wunderground v.1.15,2013-08-12 10:37:00,
2013-08-12 06:39:00,66.9,66.6,30.11,WSW,238,0.0,9.0,99,0.00,,,0.00,Wunderground v.1.15,2013-08-12 10:39:00,
2013-08-12 06:42:00,66.9,66.6,30.11,WSW,238,0.0,9.0,99,0.00,,,0.01,Wunderground v.1.15,2013-08-12 10:42:00,
2013-08-12 06:43:00,66.9,66.6,30.11,WSW,238,0.0,9.0,99,0.00,,,0.01,Wunderground v.1.15,2013-08-12 10:43:00,
2013-08-12 06:44:00,66.9,66.6,30.11,WSW,238,0.0,9.0,99,0.00,,,0.01,Wunderground v.1.15,2013-08-12 10:44:00,
2013-08-12 06:45:00,66.9,66.6,30.11,WSW,238,0.0,9.0,99,0.00,,,0.01,Wunderground v.1.15,2013-08-12 10:45:00,
2013-08-12 06:48:00,66.9,66.6,30.12,WSW,238,0.0,9.0,99,0.00,,,0.01,Wunderground v.1.15,2013-08-12 10:48:00,
2013-08-12 06:50:00,66.9,66.6,30.12,WSW,238,0.0,9.0,99,0.00,,,0.01,Wunderground v.1.15,2013-08-12 10:50:00,
2013-08-12 06:52:00,66.8,66.5,30.12,WSW,238,0.0,9.0,99,0.00,,,0.01,Wunderground v.1.15,2013-08-12 10:52:00,
2013-08-12 06:53:00,66.8,66.5,30.12,WSW,238,0.0,9.0,99,0.00,,,0.01,Wunderground v.1.15,2013-08-12 10:53:00,
2013-08-12 06:54:00,66.8,66.5,30.11,WSW,238,0.0,9.0,99,0.00,,,0.01,Wunderground v.1.15,2013-08-12 10:54:00,
2013-08-12 06:56:00,66.8,66.5,30.11,WSW,238,0.0,9.0,99,0.00,,,0.01,Wunderground v.1.15,2013-08-12 10:56:00,
2013-08-12 06:58:00,66.8,66.5,30.11,WSW,238,0.0,9.0,99,0.00,,,0.01,Wunderground v.1.15,2013-08-12 10:58:00,
2013-08-12 06:59:00,66.9,66.6,30.11,WSW,238,0.0,9.0,99,0.00,,,0.01,Wunderground v.1.15,2013-08-12 10:59:00,
2013-08-12 07:01:00,66.9,66.9,30.11,WSW,238,0.0,9.0,100,0.00,,,0.01,Wunderground v.1.15,2013-08-12 11:01:00,
2013-08-12 07:02:00,66.9,66.9,30.11,WSW,238,0.0,9.0,100,0.00,,,0.01,Wunderground v.1.15,2013-08-12 11:02:00,
2013-08-12 07:06:00,67.0,67.0,30.11,WSW,238,0.0,9.0,100,0.00,,,0.01,Wunderground v.1.15,2013-08-12 11:06:00,
2013-08-12 07:08:00,67.1,67.1,30.11,WSW,238,0.0,9.0,100,0.00,,,0.01,Wunderground v.1.15,2013-08-12 11:08:00,
2013-08-12 07:09:00,67.1,67.1,30.11,WSW,238,0.0,9.0,100,0.00,,,0.01,Wunderground v.1.15,2013-08-12 11:09:00,
2013-08-12 07:12:00,67.1,67.1,30.11,WSW,238,0.0,9.0,100,0.00,,,0.01,Wunderground v.1.15,2013-08-12 11:12:00,
2013-08-12 07:13:00,67.2,67.2,30.11,WSW,238,0.0,9.0,100,0.00,,,0.01,Wunderground v.1.15,2013-08-12 11:13:00,
2013-08-12 07:14:00,67.3,67.3,30.11,WSW,238,0.0,9.0,100,0.00,,,0.01,Wunderground v.1.15,2013-08-12 11:14:00,
2013-08-12 07:15:00,67.4,67.4,30.11,WSW,238,0.0,9.0,100,0.00,,,0.01,Wunderground v.1.15,2013-08-12 11:15:00,
2013-08-12 07:18:00,67.5,67.5,30.11,WSW,238,0.0,9.0,100,0.00,,,0.01,Wunderground v.1.15,2013-08-12 11:18:00,
2013-08-12 07:19:00,67.5,67.5,30.11,WSW,238,0.0,9.0,100,0.00,,,0.01,Wunderground v.1.15,2013-08-12 11:19:00,
2013-08-12 07:22:00,67.7,67.7,30.11,WSW,238,0.0,9.0,100,0.00,,,0.01,Wunderground v.1.15,2013-08-12 11:22:00,
2013-08-12 07:25:00,67.9,67.9,30.11,WSW,238,0.0,9.0,100,0.00,,,0.01,Wunderground v.1.15,2013-08-12 11:25:00,
2013-08-12 07:27:00,68.0,68.0,30.11,WSW,238,0.0,9.0,100,0.00,,,0.01,Wunderground v.1.15,2013-08-12 11:27:00,
2013-08-12 07:28:00,68.0,68.0,30.11,WSW,238,0.0,9.0,100,0.00,,,0.01,Wunderground v.1.15,2013-08-12 11:28:00,
2013-08-12 07:29:00,68.1,68.1,30.11,WSW,238,0.0,9.0,100,0.00,,,0.01,Wunderground v.1.15,2013-08-12 11:29:00,
2013-08-12 07:31:00,68.1,68.1,30.11,WSW,238,0.0,9.0,100,0.00,,,0.01,Wunderground v.1.15,2013-08-12 11:31:00,
2013-08-12 07:32:00,68.2,68.2,30.11,WSW,238,0.0,9.0,100,0.00,,,0.01,Wunderground v.1.15,2013-08-12 11:32:00,
2013-08-12 07:33:00,68.2,68.2,30.11,WSW,238,0.0,9.0,100,0.00,,,0.01,Wunderground v.1.15,2013-08-12 11:33:00,
2013-08-12 07:37:00,68.3,68.3,30.11,WSW,238,0.0,9.0,100,0.00,,,0.01,Wunderground v.1.15,2013-08-12 11:37:00,
2013-08-12 07:38:00,68.4,68.4,30.11,WSW,238,0.0,9.0,100,0.00,,,0.01,Wunderground v.1.15,2013-08-12 11:38:00,
2013-08-12 07:41:00,68.5,68.5,30.11,WSW,238,0.0,9.0,100,0.00,,,0.01,Wunderground v.1.15,2013-08-12 11:41:00,
2013-08-12 07:43:00,68.6,68.6,30.10,WSW,238,0.0,9.0,100,0.00,,,0.01,Wunderground v.1.15,2013-08-12 11:43:00,
2013-08-12 07:44:00,68.6,68.6,30.10,WSW,238,0.0,9.0,100,0.00,,,0.01,Wunderground v.1.15,2013-08-12 11:44:00,
2013-08-12 07:46:00,68.7,68.7,30.10,WSW,238,0.0,9.0,100,0.00,,,0.01,Wunderground v.1.15,2013-08-12 11:46:00,
2013-08-12 07:50:00,68.7,68.7,30.10,WSW,238,0.0,9.0,100,0.00,,,0.01,Wunderground v.1.15,2013-08-12 11:50:00,
2013-08-12 07:52:00,68.7,68.7,30.10,WSW,238,0.0,9.0,100,0.00,,,0.01,Wunderground v.1.15,2013-08-12 11:52:00,
2013-08-12 07:56:00,68.8,68.8,30.10,WSW,238,0.0,9.0,100,0.00,,,0.01,Wunderground v.1.15,2013-08-12 11:56:00,
2013-08-12 07:58:00,68.9,68.9,30.11,WSW,238,0.0,9.0,100,0.00,,,0.01,Wunderground v.1.15,2013-08-12 11:58:00,
2013-08-12 07:59:00,69.0,69.0,30.10,WSW,238,0.0,9.0,100,0.00,,,0.01,Wunderground v.1.15,2013-08-12 11:59:00,
2013-08-12 08:01:00,69.0,69.0,30.10,WSW,238,0.0,9.0,100,0.00,,,0.01,Wunderground v.1.15,2013-08-12 12:01:00,
2013-08-12 08:02:00,69.2,69.2,30.11,WSW,238,0.0,9.0,100,0.00,,,0.01,Wunderground v.1.15,2013-08-12 12:02:00,
2013-08-12 08:05:00,69.4,69.4,30.11,WSW,238,0.0,9.0,100,0.00,,,0.01,Wunderground v.1.15,2013-08-12 12:05:00,
2013-08-12 08:06:00,69.4,69.4,30.11,WSW,238,0.0,9.0,100,0.00,,,0.01,Wunderground v.1.15,2013-08-12 12:06:00,
2013-08-12 08:08:00,69.5,69.5,30.11,WSW,238,0.0,9.0,100,0.00,,,0.01,Wunderground v.1.15,2013-08-12 12:08:00,
2013-08-12 08:09:00,69.6,69.6,30.11,WSW,238,0.0,9.0,100,0.00,,,0.01,Wunderground v.1.15,2013-08-12 12:09:00,
2013-08-12 08:12:00,69.7,69.7,30.10,WSW,238,0.0,9.0,100,0.00,,,0.01,Wunderground v.1.15,2013-08-12 12:12:00,
2013-08-12 08:14:00,69.8,69.8,30.11,WSW,238,0.0,9.0,100,0.00,,,0.01,Wunderground v.1.15,2013-08-12 12:14:00,
2013-08-12 08:17:00,69.8,69.8,30.10,WSW,238,0.0,9.0,100,0.00,,,0.01,Wunderground v.1.15,2013-08-12 12:17:00,
2013-08-12 08:18:00,69.8,69.8,30.10,WSW,238,0.0,9.0,100,0.00,,,0.01,Wunderground v.1.15,2013-08-12 12:18:00,
2013-08-12 08:23:00,70.0,70.0,30.10,WSW,238,0.0,9.0,100,0.00,,,0.01,Wunderground v.1.15,2013-08-12 12:23:00,
2013-08-12 08:24:00,70.0,70.0,30.10,WSW,238,0.0,9.0,100,0.00,,,0.01,Wunderground v.1.15,2013-08-12 12:24:00,
2013-08-12 08:25:00,70.0,70.0,30.10,WSW,238,0.0,9.0,100,0.00,,,0.01,Wunderground v.1.15,2013-08-12 12:25:00,
2013-08-12 08:26:00,70.0,70.0,30.10,WSW,238,0.0,9.0,100,0.00,,,0.01,Wunderground v.1.15,2013-08-12 12:26:00,
2013-08-12 08:29:00,70.1,70.1,30.10,WSW,238,0.0,9.0,100,0.00,,,0.01,Wunderground v.1.15,2013-08-12 12:29:00,
2013-08-12 08:30:00,70.2,70.2,30.10,WSW,238,0.0,9.0,100,0.00,,,0.01,Wunderground v.1.15,2013-08-12 12:30:00,
2013-08-12 08:31:00,70.2,70.2,30.10,WSW,238,0.0,9.0,100,0.00,,,0.01,Wunderground v.1.15,2013-08-12 12:31:00,
2013-08-12 08:34:00,70.3,70.3,30.10,WSW,238,0.0,9.0,100,0.00,,,0.01,Wunderground v.1.15,2013-08-12 12:34:00,
2013-08-12 08:38:00,70.5,70.5,30.10,WSW,238,0.0,9.0,100,0.00,,,0.01,Wunderground v.1.15,2013-08-12 12:38:00,
2013-08-12 08:39:00,70.5,70.5,30.10,WSW,238,0.0,9.0,100,0.00,,,0.01,Wunderground v.1.15,2013-08-12 12:39:00,
2013-08-12 08:41:00,70.5,70.5,30.11,WSW,238,0.0,9.0,100,0.00,,,0.01,Wunderground v.1.15,2013-08-12 12:41:00,
2013-08-12 08:43:00,70.5,70.5,30.11,WSW,238,0.0,9.0,100,0.00,,,0.01,Wunderground v.1.15,2013-08-12 12:43:00,
2013-08-12 08:46:00,70.6,70.6,30.11,WSW,238,0.0,9.0,100,0.00,,,0.01,Wunderground v.1.15,2013-08-12 12:46:00,
2013-08-12 08:47:00,70.5,70.5,30.11,WSW,238,0.0,9.0,100,0.00,,,0.01,Wunderground v.1.15,2013-08-12 12:47:00,
2013-08-12 08:48:00,70.6,70.6,30.11,WSW,238,0.0,9.0,100,0.00,,,0.01,Wunderground v.1.15,2013-08-12 12:48:00,
2013-08-12 08:49:00,70.6,70.6,30.11,WSW,238,0.0,9.0,100,0.00,,,0.01,Wunderground v.1.15,2013-08-12 12:49:00,
2013-08-12 08:51:00,70.6,70.6,30.11,WSW,238,0.0,9.0,100,0.00,,,0.01,Wunderground v.1.15,2013-08-12 12:51:00,
2013-08-12 08:53:00,70.6,70.6,30.11,WSW,238,0.0,9.0,100,0.00,,,0.01,Wunderground v.1.15,2013-08-12 12:53:00,
2013-08-12 08:56:00,70.6,70.6,30.10,WSW,238,0.0,9.0,100,0.00,,,0.01,Wunderground v.1.15,2013-08-12 12:56:00,
2013-08-12 08:58:00,70.7,70.7,30.10,WSW,238,0.0,9.0,100,0.00,,,0.01,Wunderground v.1.15,2013-08-12 12:58:00,
2013-08-12 09:01:00,70.8,70.8,30.10,SW,214,0.0,9.0,100,0.00,,,0.01,Wunderground v.1.15,2013-08-12 13:01:00,
2013-08-12 09:05:00,70.8,70.8,30.10,SW,214,0.0,9.0,100,0.00,,,0.01,Wunderground v.1.15,2013-08-12 13:05:00,
2013-08-12 09:06:00,70.8,70.8,30.10,SW,214,0.0,9.0,100,0.00,,,0.01,Wunderground v.1.15,2013-08-12 13:06:00,
2013-08-12 09:08:00,70.9,70.9,30.10,SW,214,0.0,9.0,100,0.00,,,0.01,Wunderground v.1.15,2013-08-12 13:08:00,
2013-08-12 09:10:00,71.0,71.0,30.10,SW,214,0.0,9.0,100,0.00,,,0.01,Wunderground v.1.15,2013-08-12 13:10:00,
2013-08-12 09:12:00,71.1,71.1,30.10,SSW,201,0.0,9.0,100,0.00,,,0.01,Wunderground v.1.15,2013-08-12 13:12:00,
2013-08-12 09:13:00,71.0,71.0,30.10,SSW,201,0.0,9.0,100,0.00,,,0.01,Wunderground v.1.15,2013-08-12 13:13:00,
2013-08-12 09:14:00,70.9,70.9,30.11,SSW,201,0.0,9.0,100,0.00,,,0.01,Wunderground v.1.15,2013-08-12 13:14:00,
2013-08-12 09:15:00,70.9,70.9,30.11,SSW,201,0.0,9.0,100,0.00,,,0.01,Wunderground v.1.15,2013-08-12 13:15:00,
2013-08-12 09:17:00,71.2,71.2,30.11,SSW,201,0.0,9.0,100,0.00,,,0.01,Wunderground v.1.15,2013-08-12 13:17:00,
2013-08-12 09:19:00,71.4,71.4,30.11,SSW,201,0.0,9.0,100,0.00,,,0.01,Wunderground v.1.15,2013-08-12 13:19:00,
2013-08-12 09:20:00,71.4,71.4,30.11,SSW,201,0.0,9.0,100,0.00,,,0.01,Wunderground v.1.15,2013-08-12 13:20:00,
2013-08-12 09:22:00,71.3,71.3,30.11,WSW,246,0.0,9.0,100,0.00,,,0.01,Wunderground v.1.15,2013-08-12 13:22:00,
2013-08-12 09:24:00,71.1,71.1,30.11,WSW,253,0.0,9.0,100,0.00,,,0.01,Wunderground v.1.15,2013-08-12 13:24:00,
2013-08-12 09:25:00,71.1,71.1,30.11,WSW,245,0.0,9.0,100,0.00,,,0.01,Wunderground v.1.15,2013-08-12 13:25:00,
2013-08-12 09:26:00,71.1,71.1,30.11,WSW,245,0.0,9.0,100,0.00,,,0.01,Wunderground v.1.15,2013-08-12 13:26:00,
2013-08-12 09:29:00,71.5,71.5,30.11,WSW,238,1.0,9.0,100,0.00,,,0.01,Wunderground v.1.15,2013-08-12 13:29:00,
2013-08-12 09:30:00,71.5,71.5,30.11,WSW,238,1.0,9.0,100,0.00,,,0.01,Wunderground v.1.15,2013-08-12 13:30:00,
2013-08-12 09:32:00,71.5,71.5,30.11,SW,224,1.0,9.0,100,0.00,,,0.01,Wunderground v.1.15,2013-08-12 13:32:00,
2013-08-12 09:33:00,71.5,71.5,30.11,SW,224,0.0,9.0,100,0.00,,,0.01,Wunderground v.1.15,2013-08-12 13:33:00,
2013-08-12 09:36:00,71.5,71.5,30.11,WSW,258,0.0,9.0,100,0.00,,,0.01,Wunderground v.1.15,2013-08-12 13:36:00,
2013-08-12 09:38:00,71.6,71.6,30.11,WSW,254,0.0,9.0,100,0.00,,,0.01,Wunderground v.1.15,2013-08-12 13:38:00,
2013-08-12 09:39:00,71.6,71.6,30.11,West,259,0.0,9.0,100,0.00,,,0.01,Wunderground v.1.15,2013-08-12 13:39:00,
2013-08-12 09:44:00,72.0,72.0,30.11,WSW,250,0.0,9.0,100,0.00,,,0.01,Wunderground v.1.15,2013-08-12 13:44:00,
2013-08-12 09:45:00,71.9,71.9,30.11,WSW,250,0.0,9.0,100,0.00,,,0.01,Wunderground v.1.15,2013-08-12 13:45:00,
2013-08-12 09:46:00,71.9,71.9,30.11,WSW,250,0.0,9.0,100,0.00,,,0.01,Wunderground v.1.15,2013-08-12 13:46:00,
2013-08-12 09:47:00,71.9,71.9,30.11,WSW,257,0.0,9.0,100,0.00,,,0.01,Wunderground v.1.15,2013-08-12 13:47:00,
2013-08-12 09:48:00,71.8,71.8,30.11,WSW,250,0.0,9.0,100,0.00,,,0.01,Wunderground v.1.15,2013-08-12 13:48:00,
2013-08-12 09:50:00,72.0,72.0,30.11,WSW,248,0.0,9.0,100,0.00,,,0.01,Wunderground v.1.15,2013-08-12 13:50:00,
2013-08-12 09:53:00,72.4,72.4,30.11,WSW,247,0.0,9.0,100,0.00,,,0.01,Wunderground v.1.15,2013-08-12 13:53:00,
2013-08-12 09:55:00,72.5,72.5,30.11,WSW,247,0.0,9.0,100,0.00,,,0.01,Wunderground v.1.15,2013-08-12 13:55:00,
2013-08-12 09:59:00,72.4,72.4,30.11,West,273,0.0,9.0,100,0.00,,,0.01,Wunderground v.1.15,2013-08-12 13:59:00,
2013-08-12 10:01:00,72.4,72.4,30.11,WSW,250,0.0,9.0,100,0.00,,,0.01,Wunderground v.1.15,2013-08-12 14:01:00,
2013-08-12 10:03:00,72.5,72.5,30.11,WSW,244,1.0,9.0,100,0.00,,,0.01,Wunderground v.1.15,2013-08-12 14:03:00,
2013-08-12 10:04:00,72.5,72.5,30.10,WSW,244,1.0,9.0,100,0.00,,,0.01,Wunderground v.1.15,2013-08-12 14:04:00,
2013-08-12 10:08:00,72.9,72.9,30.10,West,263,1.0,9.0,100,0.00,,,0.01,Wunderground v.1.15,2013-08-12 14:08:00,
2013-08-12 10:09:00,72.9,72.9,30.10,WSW,237,1.0,9.0,100,0.00,,,0.01,Wunderground v.1.15,2013-08-12 14:09:00,
2013-08-12 10:10:00,73.0,73.0,30.10,WSW,239,1.0,9.0,100,0.00,,,0.01,Wunderground v.1.15,2013-08-12 14:10:00,
2013-08-12 10:12:00,73.0,73.0,30.10,WSW,250,1.0,2.0,100,0.00,,,0.01,Wunderground v.1.15,2013-08-12 14:12:00,
2013-08-12 10:14:00,73.1,73.1,30.10,WSW,250,1.0,9.0,100,0.00,,,0.01,Wunderground v.1.15,2013-08-12 14:14:00,
2013-08-12 10:15:00,73.3,73.3,30.10,WSW,251,1.0,9.0,100,0.00,,,0.01,Wunderground v.1.15,2013-08-12 14:15:00,
2013-08-12 10:16:00,73.4,73.4,30.10,WSW,251,1.0,9.0,100,0.00,,,0.01,Wunderground v.1.15,2013-08-12 14:16:00,
2013-08-12 10:18:00,73.8,73.8,30.10,WNW,287,1.0,9.0,100,0.00,,,0.01,Wunderground v.1.15,2013-08-12 14:18:00,
2013-08-12 10:20:00,73.9,73.9,30.10,WSW,254,1.0,9.0,100,0.00,,,0.01,Wunderground v.1.15,2013-08-12 14:20:00,
2013-08-12 10:22:00,73.9,73.9,30.10,SW,232,1.0,9.0,100,0.00,,,0.01,Wunderground v.1.15,2013-08-12 14:22:00,
2013-08-12 10:23:00,73.9,73.6,30.10,SW,214,1.0,9.0,99,0.00,,,0.01,Wunderground v.1.15,2013-08-12 14:23:00,
2013-08-12 10:26:00,74.1,73.8,30.10,South,190,1.0,9.0,99,0.00,,,0.01,Wunderground v.1.15,2013-08-12 14:26:00,
2013-08-12 10:28:00,74.3,73.7,30.10,WSW,240,1.0,9.0,98,0.00,,,0.01,Wunderground v.1.15,2013-08-12 14:28:00,
2013-08-12 10:29:00,74.4,73.8,30.10,WSW,240,1.0,9.0,98,0.00,,,0.01,Wunderground v.1.15,2013-08-12 14:29:00,
2013-08-12 10:31:00,74.7,74.1,30.10,WSW,241,1.0,1.0,98,0.00,,,0.01,Wunderground v.1.15,2013-08-12 14:31:00,
2013-08-12 10:34:00,75.0,74.1,30.10,WSW,240,0.0,9.0,97,0.00,,,0.01,Wunderground v.1.15,2013-08-12 14:34:00,
2013-08-12 10:35:00,75.1,74.2,30.10,SSW,202,0.0,9.0,97,0.00,,,0.01,Wunderground v.1.15,2013-08-12 14:35:00,
2013-08-12 10:37:00,75.0,73.5,30.10,WNW,282,0.0,9.0,95,0.00,,,0.01,Wunderground v.1.15,2013-08-12 14:37:00,
2013-08-12 10:39:00,75.1,73.6,30.10,SSW,195,0.0,9.0,95,0.00,,,0.01,Wunderground v.1.15,2013-08-12 14:39:00,
2013-08-12 10:42:00,75.1,73.3,30.10,SW,217,1.0,9.0,94,0.00,,,0.01,Wunderground v.1.15,2013-08-12 14:42:00,
2013-08-12 10:44:00,75.2,73.4,30.10,SSW,213,1.0,9.0,94,0.00,,,0.01,Wunderground v.1.15,2013-08-12 14:44:00,
2013-08-12 10:45:00,75.2,73.7,30.10,South,177,1.0,9.0,95,0.00,,,0.01,Wunderground v.1.15,2013-08-12 14:45:00,
2013-08-12 10:46:00,75.2,73.4,30.10,SSW,206,1.0,9.0,94,0.00,,,0.01,Wunderground v.1.15,2013-08-12 14:46:00,
2013-08-12 10:50:00,75.5,73.7,30.10,SW,214,1.0,9.0,94,0.00,,,0.01,Wunderground v.1.15,2013-08-12 14:50:00,
2013-08-12 10:52:00,75.6,73.4,30.10,WSW,250,1.0,9.0,93,0.00,,,0.01,Wunderground v.1.15,2013-08-12 14:52:00,
2013-08-12 10:54:00,75.7,73.5,30.10,West,267,1.0,9.0,93,0.00,,,0.01,Wunderground v.1.15,2013-08-12 14:54:00,
2013-08-12 10:56:00,75.5,73.0,30.10,WSW,242,1.0,9.0,92,0.00,,,0.01,Wunderground v.1.15,2013-08-12 14:56:00,
2013-08-12 10:59:00,75.4,73.2,30.10,SSW,209,2.0,9.0,93,0.00,,,0.01,Wunderground v.1.15,2013-08-12 14:59:00,
2013-08-12 11:02:00,75.3,73.1,30.10,SW,234,1.0,9.0,93,0.00,,,0.01,Wunderground v.1.15,2013-08-12 15:02:00,
2013-08-12 11:03:00,75.4,73.2,30.10,SW,224,1.0,9.0,93,0.00,,,0.01,Wunderground v.1.15,2013-08-12 15:03:00,
2013-08-12 11:05:00,75.4,73.2,30.10,SW,224,1.0,9.0,93,0.00,,,0.01,Wunderground v.1.15,2013-08-12 15:05:00,
2013-08-12 11:06:00,75.5,73.3,30.10,SW,224,1.0,9.0,93,0.00,,,0.01,Wunderground v.1.15,2013-08-12 15:06:00,
2013-08-12 11:10:00,75.6,73.8,30.10,WSW,243,0.0,9.0,94,0.00,,,0.01,Wunderground v.1.15,2013-08-12 15:10:00,
2013-08-12 11:13:00,75.6,73.1,30.10,SSW,199,1.0,9.0,92,0.00,,,0.01,Wunderground v.1.15,2013-08-12 15:13:00,
2013-08-12 11:14:00,75.6,73.1,30.10,WSW,246,1.0,9.0,92,0.00,,,0.01,Wunderground v.1.15,2013-08-12 15:14:00,
2013-08-12 11:18:00,75.7,73.5,30.10,South,186,1.0,9.0,93,0.00,,,0.01,Wunderground v.1.15,2013-08-12 15:18:00,
2013-08-12 11:19:00,75.7,73.5,30.10,SSW,201,1.0,9.0,93,0.00,,,0.01,Wunderground v.1.15,2013-08-12 15:19:00,
2013-08-12 11:21:00,75.8,73.6,30.11,SW,218,1.0,1.0,93,0.00,,,0.01,Wunderground v.1.15,2013-08-12 15:21:00,
2013-08-12 11:22:00,75.8,73.9,30.11,SW,216,1.0,9.0,94,0.00,,,0.01,Wunderground v.1.15,2013-08-12 15:22:00,
2013-08-12 11:23:00,75.7,73.5,30.11,West,263,1.0,9.0,93,0.00,,,0.01,Wunderground v.1.15,2013-08-12 15:23:00,
2013-08-12 11:24:00,75.7,73.2,30.10,SSW,202,0.0,9.0,92,0.00,,,0.01,Wunderground v.1.15,2013-08-12 15:24:00,
2013-08-12 11:27:00,75.7,73.5,30.10,South,190,1.0,9.0,93,0.00,,,0.01,Wunderground v.1.15,2013-08-12 15:27:00,
2013-08-12 11:29:00,75.7,73.5,30.10,SSW,206,0.0,9.0,93,0.00,,,0.01,Wunderground v.1.15,2013-08-12 15:29:00,
2013-08-12 11:30:00,75.7,73.2,30.10,WSW,254,0.0,9.0,92,0.00,,,0.01,Wunderground v.1.15,2013-08-12 15:30:00,
2013-08-12 11:33:00,75.7,73.5,30.10,West,260,1.0,9.0,93,0.00,,,0.01,Wunderground v.1.15,2013-08-12 15:33:00,
2013-08-12 11:35:00,75.8,73.6,30.10,WNW,298,0.0,9.0,93,0.00,,,0.01,Wunderground v.1.15,2013-08-12 15:35:00,
2013-08-12 11:36:00,75.8,73.3,30.10,WSW,250,0.0,9.0,92,0.00,,,0.01,Wunderground v.1.15,2013-08-12 15:36:00,
2013-08-12 11:37:00,75.8,73.6,30.10,West,281,1.0,9.0,93,0.00,,,0.01,Wunderground v.1.15,2013-08-12 15:37:00,
2013-08-12 11:40:00,75.8,73.6,30.10,WNW,297,0.0,9.0,93,0.00,,,0.01,Wunderground v.1.15,2013-08-12 15:40:00,
2013-08-12 11:42:00,75.9,73.7,30.10,SW,223,0.0,9.0,93,0.00,,,0.01,Wunderground v.1.15,2013-08-12 15:42:00,
2013-08-12 11:44:00,75.8,73.3,30.10,SW,231,1.0,9.0,92,0.00,,,0.01,Wunderground v.1.15,2013-08-12 15:44:00,
2013-08-12 11:45:00,75.8,73.3,30.10,West,259,1.0,9.0,92,0.00,,,0.01,Wunderground v.1.15,2013-08-12 15:45:00,
2013-08-12 11:46:00,75.8,73.3,30.10,WSW,254,1.0,9.0,92,0.00,,,0.01,Wunderground v.1.15,2013-08-12 15:46:00,
2013-08-12 11:47:00,75.8,73.6,30.10,WSW,256,1.0,9.0,93,0.00,,,0.01,Wunderground v.1.15,2013-08-12 15:47:00,
2013-08-12 11:48:00,75.8,73.6,30.10,WSW,246,1.0,9.0,93,0.00,,,0.01,Wunderground v.1.15,2013-08-12 15:48:00,
2013-08-12 11:51:00,75.8,73.9,30.10,West,280,1.0,1.0,94,0.00,,,0.01,Wunderground v.1.15,2013-08-12 15:51:00,
2013-08-12 11:52:00,75.7,73.5,30.10,SW,220,1.0,9.0,93,0.00,,,0.01,Wunderground v.1.15,2013-08-12 15:52:00,
2013-08-12 11:53:00,75.8,73.6,30.10,WNW,285,1.0,9.0,93,0.00,,,0.01,Wunderground v.1.15,2013-08-12 15:53:00,
2013-08-12 11:54:00,75.7,73.5,30.10,WNW,286,0.0,9.0,93,0.00,,,0.01,Wunderground v.1.15,2013-08-12 15:54:00,
2013-08-12 11:55:00,75.7,73.5,30.10,SSW,198,0.0,9.0,93,0.00,,,0.01,Wunderground v.1.15,2013-08-12 15:55:00,
2013-08-12 11:56:00,75.7,73.5,30.10,West,259,0.0,9.0,93,0.00,,,0.01,Wunderground v.1.15,2013-08-12 15:56:00,
2013-08-12 11:58:00,75.8,73.9,30.10,WSW,238,0.0,9.0,94,0.00,,,0.01,Wunderground v.1.15,2013-08-12 15:58:00,
2013-08-12 12:01:00,75.8,73.9,30.10,SW,214,0.0,9.0,94,0.00,,,0.01,Wunderground v.1.15,2013-08-12 16:01:00,
2013-08-12 12:02:00,75.8,73.9,30.10,SW,221,0.0,9.0,94,0.00,,,0.01,Wunderground v.1.15,2013-08-12 16:02:00,
2013-08-12 12:05:00,75.7,73.5,30.10,WSW,257,1.0,9.0,93,0.00,,,0.01,Wunderground v.1.15,2013-08-12 16:05:00,
2013-08-12 12:07:00,75.5,73.3,30.10,WSW,248,2.0,9.0,93,0.00,,,0.01,Wunderground v.1.15,2013-08-12 16:07:00,
2013-08-12 12:08:00,75.4,73.2,30.10,SW,234,2.0,9.0,93,0.00,,,0.01,Wunderground v.1.15,2013-08-12 16:08:00,
2013-08-12 12:11:00,75.4,73.6,30.10,SW,225,2.0,2.0,94,0.00,,,0.01,Wunderground v.1.15,2013-08-12 16:11:00,
2013-08-12 12:12:00,75.4,73.6,30.10,SW,224,2.0,9.0,94,0.00,,,0.01,Wunderground v.1.15,2013-08-12 16:12:00,
2013-08-12 12:14:00,75.5,73.7,30.09,WSW,242,1.0,9.0,94,0.00,,,0.01,Wunderground v.1.15,2013-08-12 16:14:00,
2013-08-12 12:16:00,75.5,73.3,30.09,West,261,1.0,9.0,93,0.00,,,0.01,Wunderground v.1.15,2013-08-12 16:16:00,
2013-08-12 12:17:00,75.5,73.3,30.09,WSW,245,1.0,9.0,93,0.00,,,0.01,Wunderground v.1.15,2013-08-12 16:17:00,
2013-08-12 12:19:00,75.5,73.7,30.09,West,267,0.0,9.0,94,0.00,,,0.01,Wunderground v.1.15,2013-08-12 16:19:00,
2013-08-12 12:21:00,75.7,73.8,30.09,WSW,237,0.0,9.0,94,0.00,,,0.01,Wunderground v.1.15,2013-08-12 16:21:00,
2013-08-12 12:22:00,75.7,73.8,30.09,WSW,240,0.0,9.0,94,0.00,,,0.01,Wunderground v.1.15,2013-08-12 16:22:00,
2013-08-12 12:23:00,75.7,73.5,30.09,SW,219,1.0,9.0,93,0.00,,,0.01,Wunderground v.1.15,2013-08-12 16:23:00,
2013-08-12 12:27:00,75.7,73.8,30.10,SW,236,0.0,9.0,94,0.00,,,0.01,Wunderground v.1.15,2013-08-12 16:27:00,
2013-08-12 12:28:00,75.7,73.8,30.10,SW,227,0.0,9.0,94,0.00,,,0.01,Wunderground v.1.15,2013-08-12 16:28:00,
2013-08-12 12:29:00,75.6,73.8,30.10,WSW,248,1.0,9.0,94,0.00,,,0.01,Wunderground v.1.15,2013-08-12 16:29:00,
2013-08-12 12:30:00,75.6,73.8,30.09,WSW,242,1.0,9.0,94,0.00,,,0.01,Wunderground v.1.15,2013-08-12 16:30:00,
2013-08-12 12:34:00,75.6,74.1,30.09,WSW,242,0.0,9.0,95,0.00,,,0.01,Wunderground v.1.15,2013-08-12 16:34:00,
2013-08-12 12:35:00,75.7,74.2,30.09,WSW,242,0.0,9.0,95,0.00,,,0.01,Wunderground v.1.15,2013-08-12 16:35:00,
2013-08-12 12:36:00,75.7,74.2,30.09,WSW,242,0.0,9.0,95,0.00,,,0.01,Wunderground v.1.15,2013-08-12 16:36:00,
2013-08-12 12:37:00,75.7,74.2,30.09,WSW,242,0.0,9.0,95,0.00,,,0.01,Wunderground v.1.15,2013-08-12 16:37:00,
2013-08-12 12:41:00,75.7,74.2,30.09,SW,234,0.0,9.0,95,0.00,,,0.01,Wunderground v.1.15,2013-08-12 16:41:00,
2013-08-12 12:42:00,75.8,74.3,30.09,SW,234,0.0,9.0,95,0.00,,,0.01,Wunderground v.1.15,2013-08-12 16:42:00,
2013-08-12 12:43:00,75.8,74.3,30.09,SW,234,0.0,9.0,95,0.00,,,0.01,Wunderground v.1.15,2013-08-12 16:43:00,
2013-08-12 12:44:00,75.8,74.3,30.09,SW,234,0.0,9.0,95,0.00,,,0.01,Wunderground v.1.15,2013-08-12 16:44:00,
2013-08-12 12:46:00,75.8,74.3,30.09,SW,234,0.0,9.0,95,0.00,,,0.01,Wunderground v.1.15,2013-08-12 16:46:00,
2013-08-12 12:50:00,75.8,73.9,30.09,SW,234,0.0,9.0,94,0.00,,,0.01,Wunderground v.1.15,2013-08-12 16:50:00,
2013-08-12 12:52:00,75.8,73.9,30.09,SW,234,0.0,9.0,94,0.00,,,0.01,Wunderground v.1.15,2013-08-12 16:52:00,
2013-08-12 12:53:00,75.7,73.8,30.09,SW,234,0.0,9.0,94,0.00,,,0.01,Wunderground v.1.15,2013-08-12 16:53:00,
2013-08-12 12:54:00,75.7,73.8,30.08,SW,234,0.0,9.0,94,0.00,,,0.01,Wunderground v.1.15,2013-08-12 16:54:00,
2013-08-12 12:55:00,75.7,73.8,30.08,SW,234,0.0,9.0,94,0.00,,,0.01,Wunderground v.1.15,2013-08-12 16:55:00,
2013-08-12 12:57:00,75.6,73.8,30.08,SW,234,0.0,9.0,94,0.00,,,0.02,Wunderground v.1.15,2013-08-12 16:57:00,
2013-08-12 13:01:00,75.5,73.7,30.08,SW,234,0.0,9.0,94,0.59,,,0.05,Wunderground v.1.15,2013-08-12 17:01:00,
2013-08-12 13:02:00,75.3,73.8,30.08,SW,225,0.0,9.0,95,0.40,,,0.06,Wunderground v.1.15,2013-08-12 17:02:00,
2013-08-12 13:03:00,75.2,73.7,30.08,SW,219,0.0,9.0,95,0.23,,,0.06,Wunderground v.1.15,2013-08-12 17:03:00,
2013-08-12 13:06:00,74.9,73.4,30.09,SW,221,1.0,9.0,95,0.22,,,0.07,Wunderground v.1.15,2013-08-12 17:06:00,
2013-08-12 13:07:00,74.8,73.3,30.09,SW,220,1.0,9.0,95,0.16,,,0.07,Wunderground v.1.15,2013-08-12 17:07:00,
2013-08-12 13:08:00,74.7,73.5,30.09,SW,220,1.0,9.0,96,0.15,,,0.08,Wunderground v.1.15,2013-08-12 17:08:00,
2013-08-12 13:09:00,74.7,73.5,30.09,SW,221,1.0,9.0,96,0.15,,,0.08,Wunderground v.1.15,2013-08-12 17:09:00,
2013-08-12 13:10:00,74.6,73.4,30.09,SSW,192,1.0,9.0,96,0.15,,,0.08,Wunderground v.1.15,2013-08-12 17:10:00,
2013-08-12 13:12:00,74.4,73.2,30.09,South,169,1.0,9.0,96,0.12,,,0.08,Wunderground v.1.15,2013-08-12 17:12:00,
2013-08-12 13:14:00,74.3,73.4,30.09,SW,225,1.0,9.0,97,0.09,,,0.08,Wunderground v.1.15,2013-08-12 17:14:00,
2013-08-12 13:15:00,74.2,73.3,30.09,SW,219,1.0,9.0,97,0.08,,,0.09,Wunderground v.1.15,2013-08-12 17:15:00,
2013-08-12 13:17:00,74.2,73.3,30.09,SSW,212,1.0,9.0,97,0.63,,,0.10,Wunderground v.1.15,2013-08-12 17:17:00,
2013-08-12 13:19:00,74.1,73.2,30.09,WSW,253,1.0,9.0,97,0.82,,,0.13,Wunderground v.1.15,2013-08-12 17:19:00,
2013-08-12 13:20:00,74.0,73.4,30.09,WSW,241,1.0,9.0,98,0.67,,,0.14,Wunderground v.1.15,2013-08-12 17:20:00,
2013-08-12 13:24:00,73.9,73.3,30.09,SSW,202,1.0,9.0,98,0.54,,,0.18,Wunderground v.1.15,2013-08-12 17:24:00,
2013-08-12 13:26:00,73.6,72.7,30.08,SW,225,1.0,9.0,97,0.19,,,0.18,Wunderground v.1.15,2013-08-12 17:26:00,
2013-08-12 13:27:00,73.5,72.6,30.08,WSW,238,1.0,9.0,97,0.15,,,0.18,Wunderground v.1.15,2013-08-12 17:27:00,
2013-08-12 13:30:00,73.5,72.9,30.08,WSW,238,1.0,9.0,98,0.13,,,0.19,Wunderground v.1.15,2013-08-12 17:30:00,
2013-08-12 13:31:00,73.4,72.8,30.08,WSW,238,1.0,1.0,98,0.13,,,0.19,Wunderground v.1.15,2013-08-12 17:31:00,
2013-08-12 13:32:00,73.5,72.9,30.08,WSW,238,1.0,9.0,98,0.19,,,0.20,Wunderground v.1.15,2013-08-12 17:32:00,
2013-08-12 13:34:00,73.4,72.8,30.08,WSW,238,0.0,9.0,98,0.19,,,0.20,Wunderground v.1.15,2013-08-12 17:34:00,
2013-08-12 13:35:00,73.3,72.7,30.07,WSW,238,0.0,9.0,98,0.15,,,0.20,Wunderground v.1.15,2013-08-12 17:35:00,
2013-08-12 13:38:00,73.1,72.2,30.06,WSW,238,0.0,9.0,97,0.08,,,0.20,Wunderground v.1.15,2013-08-12 17:38:00,
2013-08-12 13:40:00,72.9,72.0,30.07,WSW,238,0.0,9.0,97,0.07,,,0.20,Wunderground v.1.15,2013-08-12 17:40:00,
2013-08-12 13:41:00,72.8,71.9,30.07,WSW,238,0.0,9.0,97,0.06,,,0.20,Wunderground v.1.15,2013-08-12 17:41:00,
2013-08-12 13:44:00,72.7,71.8,30.06,WSW,238,0.0,9.0,97,0.05,,,0.20,Wunderground v.1.15,2013-08-12 17:44:00,
2013-08-12 13:46:00,72.7,72.1,30.06,WSW,238,0.0,9.0,98,0.04,,,0.20,Wunderground v.1.15,2013-08-12 17:46:00,
2013-08-12 13:47:00,72.7,72.1,30.06,WSW,238,0.0,9.0,98,0.04,,,0.20,Wunderground v.1.15,2013-08-12 17:47:00,
2013-08-12 13:48:00,72.7,72.1,30.06,WSW,238,0.0,9.0,98,0.00,,,0.20,Wunderground v.1.15,2013-08-12 17:48:00,
2013-08-12 13:49:00,72.6,72.0,30.06,WSW,238,0.0,9.0,98,0.00,,,0.20,Wunderground v.1.15,2013-08-12 17:49:00,
2013-08-12 13:54:00,72.5,71.9,30.07,WSW,238,0.0,9.0,98,0.00,,,0.20,Wunderground v.1.15,2013-08-12 17:54:00,
2013-08-12 13:55:00,72.5,71.9,30.07,WSW,238,0.0,9.0,98,0.00,,,0.20,Wunderground v.1.15,2013-08-12 17:55:00,
2013-08-12 13:56:00,72.5,71.9,30.08,WSW,238,0.0,9.0,98,0.00,,,0.20,Wunderground v.1.15,2013-08-12 17:56:00,
2013-08-12 13:57:00,72.5,71.9,30.08,WSW,238,0.0,9.0,98,0.00,,,0.20,Wunderground v.1.15,2013-08-12 17:57:00,
2013-08-12 13:58:00,72.5,71.9,30.08,WSW,238,0.0,9.0,98,0.00,,,0.20,Wunderground v.1.15,2013-08-12 17:58:00,
2013-08-12 13:59:00,72.6,72.0,30.08,WSW,238,0.0,9.0,98,0.00,,,0.20,Wunderground v.1.15,2013-08-12 17:59:00,
2013-08-12 14:02:00,72.6,72.3,30.08,WSW,238,0.0,9.0,99,0.44,,,0.22,Wunderground v.1.15,2013-08-12 18:02:00,
2013-08-12 14:04:00,72.5,72.2,30.08,SW,219,0.0,9.0,99,0.83,,,0.24,Wunderground v.1.15,2013-08-12 18:04:00,
2013-08-12 14:07:00,72.2,71.6,30.08,WSW,251,1.0,9.0,98,0.91,,,0.29,Wunderground v.1.15,2013-08-12 18:07:00,
2013-08-12 14:08:00,72.1,71.5,30.08,South,186,1.0,9.0,98,4.24,,,0.34,Wunderground v.1.15,2013-08-12 18:08:00,
2013-08-12 14:10:00,71.9,71.3,30.08,SW,216,2.0,9.0,98,2.72,,,0.40,Wunderground v.1.15,2013-08-12 18:10:00,
2013-08-12 14:13:00,71.7,71.1,30.08,WSW,254,2.0,9.0,98,2.10,,,0.51,Wunderground v.1.15,2013-08-12 18:13:00,
2013-08-12 14:16:00,71.5,70.9,30.08,SW,234,1.0,9.0,98,1.01,,,0.58,Wunderground v.1.15,2013-08-12 18:16:00,
2013-08-12 14:17:00,71.5,71.2,30.08,SSW,211,1.0,9.0,99,1.48,,,0.60,Wunderground v.1.15,2013-08-12 18:17:00,
2013-08-12 14:19:00,71.5,71.2,30.07,WSW,251,1.0,9.0,99,1.16,,,0.65,Wunderground v.1.15,2013-08-12 18:19:00,
2013-08-12 14:22:00,71.4,71.1,30.07,WSW,250,0.0,9.0,99,1.14,,,0.73,Wunderground v.1.15,2013-08-12 18:22:00,
2013-08-12 14:24:00,71.5,71.2,30.07,SW,230,0.0,9.0,99,0.68,,,0.76,Wunderground v.1.15,2013-08-12 18:24:00,
2013-08-12 14:28:00,71.5,71.2,30.06,NW,306,0.0,9.0,99,0.32,,,0.79,Wunderground v.1.15,2013-08-12 18:28:00,
2013-08-12 14:29:00,71.5,71.2,30.07,NW,305,0.0,9.0,99,0.32,,,0.79,Wunderground v.1.15,2013-08-12 18:29:00,
2013-08-12 14:31:00,71.6,71.3,30.07,NW,305,0.0,9.0,99,0.19,,,0.79,Wunderground v.1.15,2013-08-12 18:31:00,
2013-08-12 14:34:00,71.4,71.1,30.06,NNE,32,0.0,9.0,99,0.10,,,0.79,Wunderground v.1.15,2013-08-12 18:34:00,
2013-08-12 14:35:00,71.4,71.1,30.06,NE,47,0.0,9.0,99,0.08,,,0.79,Wunderground v.1.15,2013-08-12 18:35:00,
2013-08-12 14:36:00,71.3,71.0,30.05,NE,46,0.0,9.0,99,0.07,,,0.79,Wunderground v.1.15,2013-08-12 18:36:00,
2013-08-12 14:38:00,71.2,70.9,30.05,NNW,344,0.0,9.0,99,0.06,,,0.80,Wunderground v.1.15,2013-08-12 18:38:00,
2013-08-12 14:40:00,71.2,70.9,30.06,West,267,0.0,9.0,99,0.06,,,0.80,Wunderground v.1.15,2013-08-12 18:40:00,
2013-08-12 14:42:00,71.2,70.9,30.06,WSW,238,0.0,9.0,99,0.06,,,0.80,Wunderground v.1.15,2013-08-12 18:42:00,
2013-08-12 14:43:00,71.2,70.9,30.07,SW,236,1.0,9.0,99,0.06,,,0.80,Wunderground v.1.15,2013-08-12 18:43:00,
2013-08-12 14:44:00,71.2,70.9,30.07,SW,236,1.0,9.0,99,0.06,,,0.80,Wunderground v.1.15,2013-08-12 18:44:00,
2013-08-12 14:45:00,71.2,70.9,30.07,WSW,242,1.0,9.0,99,0.06,,,0.80,Wunderground v.1.15,2013-08-12 18:45:00,
2013-08-12 14:49:00,71.0,70.7,30.07,WSW,246,1.0,9.0,99,0.38,,,0.82,Wunderground v.1.15,2013-08-12 18:49:00,
2013-08-12 14:50:00,70.9,70.6,30.06,WSW,246,1.0,9.0,99,0.26,,,0.82,Wunderground v.1.15,2013-08-12 18:50:00,
2013-08-12 14:51:00,70.9,70.6,30.06,WSW,246,1.0,1.0,99,0.18,,,0.82,Wunderground v.1.15,2013-08-12 18:51:00,
2013-08-12 14:55:00,71.0,70.7,30.06,West,272,1.0,9.0,99,0.51,,,0.84,Wunderground v.1.15,2013-08-12 18:55:00,
2013-08-12 14:56:00,71.0,70.7,30.07,WSW,239,0.0,9.0,99,0.46,,,0.84,Wunderground v.1.15,2013-08-12 18:56:00,
2013-08-12 14:58:00,70.9,70.6,30.06,WSW,256,1.0,9.0,99,0.17,,,0.84,Wunderground v.1.15,2013-08-12 18:58:00,
2013-08-12 15:02:00,70.8,70.5,30.07,West,275,1.0,9.0,99,0.08,,,0.84,Wunderground v.1.15,2013-08-12 19:02:00,
2013-08-12 15:03:00,70.8,70.5,30.07,South,183,1.0,9.0,99,0.07,,,0.84,Wunderground v.1.15,2013-08-12 19:03:00,
2013-08-12 15:06:00,70.7,70.7,30.06,SSW,208,1.0,9.0,100,0.05,,,0.84,Wunderground v.1.15,2013-08-12 19:06:00,
2013-08-12 15:08:00,70.6,70.3,30.06,SSW,208,1.0,9.0,99,0.04,,,0.84,Wunderground v.1.15,2013-08-12 19:08:00,
2013-08-12 15:10:00,70.5,70.2,30.06,SSW,207,0.0,9.0,99,0.04,,,0.84,Wunderground v.1.15,2013-08-12 19:10:00,
2013-08-12 15:11:00,70.5,70.2,30.06,SSW,209,0.0,9.0,99,0.04,,,0.84,Wunderground v.1.15,2013-08-12 19:11:00,
2013-08-12 15:13:00,70.4,70.1,30.06,WSW,248,0.0,9.0,99,0.00,,,0.85,Wunderground v.1.15,2013-08-12 19:13:00,
2013-08-12 15:15:00,70.4,70.1,30.06,WSW,248,0.0,9.0,99,0.00,,,0.85,Wunderground v.1.15,2013-08-12 19:15:00,
2013-08-12 15:17:00,70.5,70.2,30.06,WSW,248,0.0,9.0,99,0.13,,,0.86,Wunderground v.1.15,2013-08-12 19:17:00,
2013-08-12 15:18:00,70.6,70.6,30.05,SW,219,0.0,9.0,100,0.13,,,0.86,Wunderground v.1.15,2013-08-12 19:18:00,
2013-08-12 15:20:00,70.6,70.6,30.05,SSW,206,0.0,9.0,100,0.13,,,0.86,Wunderground v.1.15,2013-08-12 19:20:00,
2013-08-12 15:22:00,70.7,70.7,30.05,SSW,206,0.0,9.0,100,0.11,,,0.86,Wunderground v.1.15,2013-08-12 19:22:00,
2013-08-12 15:23:00,70.9,70.9,30.05,SSW,206,0.0,9.0,100,0.09,,,0.86,Wunderground v.1.15,2013-08-12 19:23:00,
2013-08-12 15:24:00,71.0,71.0,30.05,SSW,213,0.0,9.0,100,0.08,,,0.86,Wunderground v.1.15,2013-08-12 19:24:00,
2013-08-12 15:26:00,71.2,71.2,30.05,SSW,213,0.0,9.0,100,0.06,,,0.86,Wunderground v.1.15,2013-08-12 19:26:00,
2013-08-12 15:29:00,71.6,71.6,30.05,SSW,213,0.0,9.0,100,0.05,,,0.86,Wunderground v.1.15,2013-08-12 19:29:00,
2013-08-12 15:30:00,71.6,71.6,30.05,SSW,212,0.0,9.0,100,0.05,,,0.86,Wunderground v.1.15,2013-08-12 19:30:00,
2013-08-12 15:32:00,71.7,71.7,30.05,SE,136,0.0,9.0,100,0.04,,,0.86,Wunderground v.1.15,2013-08-12 19:32:00,
2013-08-12 15:33:00,71.7,71.7,30.05,SE,141,0.0,9.0,100,0.04,,,0.86,Wunderground v.1.15,2013-08-12 19:33:00,
2013-08-12 15:35:00,72.1,72.1,30.05,South,175,0.0,9.0,100,0.00,,,0.86,Wunderground v.1.15,2013-08-12 19:35:00,
2013-08-12 15:36:00,72.3,72.3,30.05,South,175,0.0,9.0,100,0.00,,,0.86,Wunderground v.1.15,2013-08-12 19:36:00,
2013-08-12 15:41:00,73.1,73.1,30.05,WNW,300,0.0,9.0,100,0.00,,,0.86,Wunderground v.1.15,2013-08-12 19:41:00,
2013-08-12 15:42:00,73.2,73.2,30.05,WNW,300,0.0,9.0,100,0.00,,,0.86,Wunderground v.1.15,2013-08-12 19:42:00,
2013-08-12 15:44:00,73.5,73.5,30.04,WNW,300,0.0,9.0,100,0.00,,,0.86,Wunderground v.1.15,2013-08-12 19:44:00,
2013-08-12 15:47:00,73.7,73.7,30.04,NW,310,0.0,9.0,100,0.00,,,0.86,Wunderground v.1.15,2013-08-12 19:47:00,
2013-08-12 15:50:00,73.8,73.8,30.04,WSW,248,0.0,9.0,100,0.00,,,0.86,Wunderground v.1.15,2013-08-12 19:50:00,
2013-08-12 15:51:00,73.7,73.7,30.04,WSW,238,0.0,9.0,100,0.00,,,0.86,Wunderground v.1.15,2013-08-12 19:51:00,
2013-08-12 15:52:00,73.4,73.4,30.04,WSW,246,0.0,9.0,100,0.00,,,0.86,Wunderground v.1.15,2013-08-12 19:52:00,
2013-08-12 15:55:00,73.2,73.2,30.03,SSW,213,0.0,9.0,100,0.00,,,0.86,Wunderground v.1.15,2013-08-12 19:55:00,
2013-08-12 15:56:00,73.2,73.2,30.03,SSW,213,0.0,9.0,100,0.00,,,0.86,Wunderground v.1.15,2013-08-12 19:56:00,
2013-08-12 15:57:00,73.2,73.2,30.03,ESE,109,0.0,9.0,100,0.00,,,0.86,Wunderground v.1.15,2013-08-12 19:57:00,
2013-08-12 15:59:00,73.0,72.7,30.03,SW,220,0.0,9.0,99,0.00,,,0.86,Wunderground v.1.15,2013-08-12 19:59:00,
2013-08-12 16:01:00,72.6,72.3,30.03,SW,220,0.0,9.0,99,0.00,,,0.86,Wunderground v.1.15,2013-08-12 20:01:00,
2013-08-12 16:04:00,72.5,72.2,30.03,SW,220,0.0,9.0,99,0.00,,,0.86,Wunderground v.1.15,2013-08-12 20:04:00,
2013-08-12 16:06:00,72.4,72.1,30.03,West,262,0.0,9.0,99,0.00,,,0.86,Wunderground v.1.15,2013-08-12 20:06:00,
2013-08-12 16:08:00,72.4,72.1,30.03,SW,236,0.0,9.0,99,0.00,,,0.86,Wunderground v.1.15,2013-08-12 20:08:00,
2013-08-12 16:10:00,72.5,72.2,30.03,SW,236,0.0,9.0,99,0.00,,,0.86,Wunderground v.1.15,2013-08-12 20:10:00,
2013-08-12 16:11:00,72.5,72.2,30.02,SW,236,0.0,9.0,99,0.00,,,0.86,Wunderground v.1.15,2013-08-12 20:11:00,
2013-08-12 16:13:00,72.7,72.4,30.02,SW,236,0.0,9.0,99,0.00,,,0.86,Wunderground v.1.15,2013-08-12 20:13:00,
2013-08-12 16:14:00,72.8,72.8,30.02,SW,236,0.0,9.0,100,0.00,,,0.86,Wunderground v.1.15,2013-08-12 20:14:00,
2013-08-12 16:16:00,73.4,73.4,30.02,SE,138,0.0,9.0,100,0.00,,,0.86,Wunderground v.1.15,2013-08-12 20:16:00,
2013-08-12 16:17:00,73.5,73.5,30.02,South,187,0.0,9.0,100,0.00,,,0.86,Wunderground v.1.15,2013-08-12 20:17:00,
2013-08-12 16:20:00,73.3,73.3,30.02,SW,217,0.0,9.0,100,0.00,,,0.86,Wunderground v.1.15,2013-08-12 20:20:00,
2013-08-12 16:21:00,73.3,73.0,30.02,West,267,1.0,9.0,99,0.00,,,0.86,Wunderground v.1.15,2013-08-12 20:21:00,
2013-08-12 16:22:00,73.3,72.7,30.02,SW,217,1.0,9.0,98,0.00,,,0.86,Wunderground v.1.15,2013-08-12 20:22:00,
2013-08-12 16:23:00,73.3,72.7,30.02,South,181,1.0,9.0,98,0.00,,,0.86,Wunderground v.1.15,2013-08-12 20:23:00,
2013-08-12 16:27:00,73.2,72.0,30.02,South,190,2.0,9.0,96,0.00,,,0.86,Wunderground v.1.15,2013-08-12 20:27:00,
2013-08-12 16:28:00,73.2,72.0,30.02,South,176,2.0,9.0,96,0.00,,,0.86,Wunderground v.1.15,2013-08-12 20:28:00,
2013-08-12 16:29:00,73.3,72.1,30.02,SSW,194,2.0,9.0,96,0.00,,,0.86,Wunderground v.1.15,2013-08-12 20:29:00,
2013-08-12 16:31:00,73.4,72.2,30.02,SW,230,2.0,2.0,96,0.00,,,0.86,Wunderground v.1.15,2013-08-12 20:31:00,
2013-08-12 16:33:00,73.5,72.3,30.02,SW,234,2.0,9.0,96,0.00,,,0.86,Wunderground v.1.15,2013-08-12 20:33:00,
2013-08-12 16:34:00,73.6,72.4,30.02,WSW,250,2.0,9.0,96,0.00,,,0.86,Wunderground v.1.15,2013-08-12 20:34:00,
2013-08-12 16:36:00,73.9,73.0,30.02,South,184,1.0,9.0,97,0.00,,,0.86,Wunderground v.1.15,2013-08-12 20:36:00,
2013-08-12 16:37:00,74.1,73.2,30.02,SSW,200,1.0,9.0,97,0.00,,,0.86,Wunderground v.1.15,2013-08-12 20:37:00,
2013-08-12 16:38:00,74.2,73.3,30.01,SW,234,1.0,9.0,97,0.00,,,0.86,Wunderground v.1.15,2013-08-12 20:38:00,
2013-08-12 16:39:00,74.2,73.3,30.01,SW,234,1.0,9.0,97,0.00,,,0.86,Wunderground v.1.15,2013-08-12 20:39:00,
2013-08-12 16:43:00,74.3,72.5,30.02,SSW,197,1.0,9.0,94,0.00,,,0.86,Wunderground v.1.15,2013-08-12 20:43:00,
2013-08-12 16:44:00,74.3,72.5,30.01,South,182,1.0,9.0,94,0.00,,,0.86,Wunderground v.1.15,2013-08-12 20:44:00,
2013-08-12 16:45:00,74.4,72.9,30.02,South,182,1.0,9.0,95,0.00,,,0.86,Wunderground v.1.15,2013-08-12 20:45:00,
2013-08-12 16:47:00,74.6,73.1,30.02,SW,229,1.0,9.0,95,0.00,,,0.86,Wunderground v.1.15,2013-08-12 20:47:00,
2013-08-12 16:49:00,74.7,73.2,30.01,SSW,213,1.0,9.0,95,0.00,,,0.86,Wunderground v.1.15,2013-08-12 20:49:00,
2013-08-12 16:50:00,74.8,73.0,30.01,SW,225,1.0,9.0,94,0.00,,,0.86,Wunderground v.1.15,2013-08-12 20:50:00,
2013-08-12 16:52:00,75.1,73.6,30.01,West,267,1.0,9.0,95,0.00,,,0.86,Wunderground v.1.15,2013-08-12 20:52:00,
2013-08-12 16:55:00,75.5,73.7,30.01,SW,230,1.0,9.0,94,0.00,,,0.86,Wunderground v.1.15,2013-08-12 20:55:00,
2013-08-12 16:56:00,75.6,74.1,30.01,West,281,1.0,9.0,95,0.00,,,0.86,Wunderground v.1.15,2013-08-12 20:56:00,
2013-08-12 16:57:00,75.7,73.8,30.01,SW,217,1.0,9.0,94,0.00,,,0.86,Wunderground v.1.15,2013-08-12 20:57:00,
2013-08-12 16:59:00,76.0,74.5,30.01,WSW,257,1.0,9.0,95,0.00,,,0.86,Wunderground v.1.15,2013-08-12 20:59:00,
2013-08-12 17:03:00,75.9,73.1,30.01,SSW,198,2.0,9.0,91,0.00,,,0.86,Wunderground v.1.15,2013-08-12 21:03:00,
2013-08-12 17:04:00,75.9,73.4,30.01,West,259,2.0,9.0,92,0.00,,,0.86,Wunderground v.1.15,2013-08-12 21:04:00,
2013-08-12 17:05:00,76.0,73.5,30.01,South,178,2.0,9.0,92,0.00,,,0.86,Wunderground v.1.15,2013-08-12 21:05:00,
2013-08-12 17:07:00,76.1,73.6,30.01,SSW,199,2.0,9.0,92,0.00,,,0.86,Wunderground v.1.15,2013-08-12 21:07:00,
2013-08-12 17:10:00,76.5,74.3,30.01,SSW,200,3.0,9.0,93,0.00,,,0.86,Wunderground v.1.15,2013-08-12 21:10:00,
2013-08-12 17:11:00,76.5,74.0,30.01,West,281,2.0,9.0,92,0.00,,,0.86,Wunderground v.1.15,2013-08-12 21:11:00,
2013-08-12 17:12:00,76.6,73.8,30.01,SW,217,2.0,9.0,91,0.00,,,0.86,Wunderground v.1.15,2013-08-12 21:12:00,
2013-08-12 17:13:00,76.7,73.5,30.01,SSW,196,2.0,9.0,90,0.00,,,0.86,Wunderground v.1.15,2013-08-12 21:13:00,
2013-08-12 17:16:00,76.8,73.6,30.01,WSW,239,2.0,9.0,90,0.00,,,0.86,Wunderground v.1.15,2013-08-12 21:16:00,
2013-08-12 17:17:00,76.9,74.1,30.01,WSW,244,2.0,9.0,91,0.00,,,0.86,Wunderground v.1.15,2013-08-12 21:17:00,
2013-08-12 17:20:00,77.3,74.5,30.01,SSW,194,1.0,9.0,91,0.00,,,0.86,Wunderground v.1.15,2013-08-12 21:20:00,
2013-08-12 17:21:00,77.4,73.9,30.00,West,264,1.0,9.0,89,0.00,,,0.86,Wunderground v.1.15,2013-08-12 21:21:00,
2013-08-12 17:24:00,77.4,73.9,30.00,SSW,204,2.0,9.0,89,0.00,,,0.86,Wunderground v.1.15,2013-08-12 21:24:00,
2013-08-12 17:25:00,77.4,73.6,30.00,SSW,204,1.0,9.0,88,0.00,,,0.86,Wunderground v.1.15,2013-08-12 21:25:00,
2013-08-12 17:26:00,77.4,74.6,30.00,SW,216,1.0,9.0,91,0.00,,,0.86,Wunderground v.1.15,2013-08-12 21:26:00,
2013-08-12 17:27:00,77.5,74.7,30.00,SW,221,1.0,9.0,91,0.00,,,0.86,Wunderground v.1.15,2013-08-12 21:27:00,
2013-08-12 17:31:00,77.6,74.4,30.00,SW,224,1.0,9.0,90,0.00,,,0.86,Wunderground v.1.15,2013-08-12 21:31:00,
2013-08-12 17:32:00,77.5,74.3,30.01,SW,223,1.0,9.0,90,0.00,,,0.86,Wunderground v.1.15,2013-08-12 21:32:00,
2013-08-12 17:33:00,77.5,74.3,30.00,SW,227,1.0,9.0,90,0.00,,,0.86,Wunderground v.1.15,2013-08-12 21:33:00,
2013-08-12 17:37:00,77.7,74.5,30.00,WSW,237,0.0,9.0,90,0.00,,,0.86,Wunderground v.1.15,2013-08-12 21:37:00,
2013-08-12 17:38:00,77.7,74.5,30.00,SW,218,0.0,9.0,90,0.00,,,0.86,Wunderground v.1.15,2013-08-12 21:38:00,
2013-08-12 17:40:00,77.9,75.1,30.00,SSW,207,0.0,9.0,91,0.00,,,0.86,Wunderground v.1.15,2013-08-12 21:40:00,
2013-08-12 17:41:00,77.9,74.7,30.00,SSW,194,1.0,9.0,90,0.00,,,0.86,Wunderground v.1.15,2013-08-12 21:41:00,
2013-08-12 17:43:00,77.8,74.6,30.00,WSW,238,1.0,9.0,90,0.00,,,0.86,Wunderground v.1.15,2013-08-12 21:43:00,
2013-08-12 17:46:00,78.0,75.5,30.00,WSW,238,1.0,9.0,92,0.00,,,0.86,Wunderground v.1.15,2013-08-12 21:46:00,
2013-08-12 17:47:00,78.1,75.3,30.00,WSW,238,1.0,9.0,91,0.00,,,0.86,Wunderground v.1.15,2013-08-12 21:47:00,
2013-08-12 17:52:00,78.3,74.8,30.00,SSW,211,0.0,9.0,89,0.00,,,0.86,Wunderground v.1.15,2013-08-12 21:52:00,
2013-08-12 17:53:00,78.4,75.2,30.00,SSW,211,0.0,9.0,90,0.00,,,0.86,Wunderground v.1.15,2013-08-12 21:53:00,
2013-08-12 17:54:00,78.4,74.9,30.00,SSW,211,0.0,9.0,89,0.00,,,0.86,Wunderground v.1.15,2013-08-12 21:54:00,
2013-08-12 17:55:00,78.5,75.0,30.00,SSW,211,0.0,9.0,89,0.00,,,0.86,Wunderground v.1.15,2013-08-12 21:55:00,
2013-08-12 17:59:00,79.2,76.0,30.00,South,169,0.0,9.0,90,0.00,,,0.86,Wunderground v.1.15,2013-08-12 21:59:00,
2013-08-12 18:01:00,79.3,75.4,30.00,South,189,0.0,9.0,88,0.00,,,0.86,Wunderground v.1.15,2013-08-12 22:01:00,
2013-08-12 18:02:00,79.4,75.2,30.00,South,184,0.0,9.0,87,0.00,,,0.86,Wunderground v.1.15,2013-08-12 22:02:00,
2013-08-12 18:05:00,79.2,73.9,30.00,SW,229,0.0,9.0,84,0.00,,,0.86,Wunderground v.1.15,2013-08-12 22:05:00,
2013-08-12 18:07:00,79.1,75.2,30.00,SW,228,0.0,9.0,88,0.00,,,0.86,Wunderground v.1.15,2013-08-12 22:07:00,
2013-08-12 18:08:00,79.1,75.2,30.00,SW,229,0.0,9.0,88,0.00,,,0.86,Wunderground v.1.15,2013-08-12 22:08:00,
2013-08-12 18:12:00,79.1,75.6,30.00,SW,229,0.0,9.0,89,0.00,,,0.86,Wunderground v.1.15,2013-08-12 22:12:00,
2013-08-12 18:13:00,79.3,76.1,30.00,SW,229,0.0,9.0,90,0.00,,,0.86,Wunderground v.1.15,2013-08-12 22:13:00,
2013-08-12 18:14:00,79.4,75.9,30.00,SW,229,0.0,9.0,89,0.00,,,0.86,Wunderground v.1.15,2013-08-12 22:14:00,
2013-08-12 18:17:00,79.6,75.0,30.00,WSW,240,0.0,9.0,86,0.00,,,0.86,Wunderground v.1.15,2013-08-12 22:17:00,
2013-08-12 18:19:00,79.8,76.3,30.00,WSW,240,0.0,9.0,89,0.00,,,0.86,Wunderground v.1.15,2013-08-12 22:19:00,
2013-08-12 18:21:00,79.9,76.0,30.00,WSW,240,0.0,9.0,88,0.00,,,0.86,Wunderground v.1.15,2013-08-12 22:21:00,
2013-08-12 18:22:00,80.0,75.8,30.00,WSW,240,0.0,9.0,87,0.00,,,0.86,Wunderground v.1.15,2013-08-12 22:22:00,
2013-08-12 18:24:00,80.1,75.9,30.00,WSW,240,0.0,9.0,87,0.00,,,0.86,Wunderground v.1.15,2013-08-12 22:24:00,
2013-08-12 18:25:00,80.1,75.9,29.99,WSW,240,0.0,9.0,87,0.00,,,0.86,Wunderground v.1.15,2013-08-12 22:25:00,
2013-08-12 18:26:00,80.1,75.5,29.99,WSW,240,0.0,9.0,86,0.00,,,0.86,Wunderground v.1.15,2013-08-12 22:26:00,
2013-08-12 18:28:00,80.1,75.5,29.99,WSW,240,0.0,9.0,86,0.00,,,0.86,Wunderground v.1.15,2013-08-12 22:28:00,
2013-08-12 18:29:00,80.1,75.9,29.99,WSW,240,0.0,9.0,87,0.00,,,0.86,Wunderground v.1.15,2013-08-12 22:29:00,
2013-08-12 18:33:00,79.8,75.2,29.99,WSW,240,0.0,9.0,86,0.00,,,0.86,Wunderground v.1.15,2013-08-12 22:33:00,
2013-08-12 18:34:00,79.8,75.6,29.99,WSW,240,0.0,9.0,87,0.00,,,0.86,Wunderground v.1.15,2013-08-12 22:34:00,
2013-08-12 18:35:00,79.7,75.5,29.99,WSW,240,0.0,9.0,87,0.00,,,0.86,Wunderground v.1.15,2013-08-12 22:35:00,
2013-08-12 18:36:00,79.6,75.4,29.99,WSW,240,0.0,9.0,87,0.00,,,0.86,Wunderground v.1.15,2013-08-12 22:36:00,
2013-08-12 18:40:00,79.4,75.5,29.98,WSW,240,0.0,9.0,88,0.00,,,0.86,Wunderground v.1.15,2013-08-12 22:40:00,
2013-08-12 18:42:00,79.3,75.4,29.98,WSW,240,0.0,9.0,88,0.00,,,0.86,Wunderground v.1.15,2013-08-12 22:42:00,
2013-08-12 18:43:00,79.2,75.7,29.98,WSW,240,0.0,9.0,89,0.00,,,0.86,Wunderground v.1.15,2013-08-12 22:43:00,
2013-08-12 18:47:00,79.1,75.2,29.98,WSW,240,0.0,9.0,88,0.00,,,0.86,Wunderground v.1.15,2013-08-12 22:47:00,
2013-08-12 18:48:00,79.1,75.6,29.99,WSW,240,0.0,9.0,89,0.00,,,0.86,Wunderground v.1.15,2013-08-12 22:48:00,
2013-08-12 18:49:00,79.1,75.9,29.99,WSW,240,0.0,9.0,90,0.00,,,0.86,Wunderground v.1.15,2013-08-12 22:49:00,
2013-08-12 18:50:00,79.0,75.8,29.99,WSW,240,0.0,9.0,90,0.00,,,0.86,Wunderground v.1.15,2013-08-12 22:50:00,
2013-08-12 18:54:00,78.8,75.3,29.99,WSW,240,0.0,9.0,89,0.00,,,0.86,Wunderground v.1.15,2013-08-12 22:54:00,
2013-08-12 18:55:00,78.7,75.2,29.99,WSW,240,0.0,9.0,89,0.00,,,0.86,Wunderground v.1.15,2013-08-12 22:55:00,
2013-08-12 18:56:00,78.7,75.5,29.99,WSW,240,0.0,9.0,90,0.00,,,0.86,Wunderground v.1.15,2013-08-12 22:56:00,
2013-08-12 18:57:00,78.6,75.4,29.99,WSW,240,0.0,9.0,90,0.00,,,0.86,Wunderground v.1.15,2013-08-12 22:57:00,
2013-08-12 19:01:00,78.5,75.3,29.99,WSW,240,0.0,9.0,90,0.00,,,0.86,Wunderground v.1.15,2013-08-12 23:01:00,
2013-08-12 19:02:00,78.4,75.2,29.98,WSW,240,0.0,9.0,90,0.00,,,0.86,Wunderground v.1.15,2013-08-12 23:02:00,
2013-08-12 19:04:00,78.1,74.6,29.98,WSW,240,0.0,9.0,89,0.00,,,0.86,Wunderground v.1.15,2013-08-12 23:04:00,
2013-08-12 19:05:00,78.0,74.8,29.98,WSW,240,0.0,9.0,90,0.00,,,0.86,Wunderground v.1.15,2013-08-12 23:05:00,
2013-08-12 19:07:00,77.6,74.4,29.98,SW,236,0.0,9.0,90,0.00,,,0.86,Wunderground v.1.15,2013-08-12 23:07:00,
2013-08-12 19:10:00,77.1,74.3,29.98,SSW,206,0.0,9.0,91,0.00,,,0.86,Wunderground v.1.15,2013-08-12 23:10:00,
2013-08-12 19:11:00,77.0,74.5,29.98,SW,232,0.0,9.0,92,0.00,,,0.86,Wunderground v.1.15,2013-08-12 23:11:00,
2013-08-12 19:15:00,76.5,74.3,29.98,SW,227,0.0,9.0,93,0.22,,,0.88,Wunderground v.1.15,2013-08-12 23:15:00,
2013-08-12 19:17:00,76.3,74.4,29.98,SW,227,0.0,9.0,94,0.20,,,0.88,Wunderground v.1.15,2013-08-12 23:17:00,
2013-08-12 19:19:00,76.2,74.3,29.98,SW,227,0.0,9.0,94,0.13,,,0.88,Wunderground v.1.15,2013-08-12 23:19:00,
2013-08-12 19:20:00,76.2,74.3,29.98,SW,227,0.0,9.0,94,0.13,,,0.89,Wunderground v.1.15,2013-08-12 23:20:00,
2013-08-12 19:21:00,76.2,74.7,29.98,SW,227,0.0,9.0,95,0.13,,,0.89,Wunderground v.1.15,2013-08-12 23:21:00,
2013-08-12 19:24:00,75.9,74.4,29.98,SW,227,0.0,9.0,95,0.14,,,0.90,Wunderground v.1.15,2013-08-12 23:24:00,
2013-08-12 19:26:00,75.8,74.3,29.98,SW,227,0.0,9.0,95,0.14,,,0.90,Wunderground v.1.15,2013-08-12 23:26:00,
2013-08-12 19:27:00,75.7,74.2,29.98,SW,227,0.0,9.0,95,0.14,,,0.90,Wunderground v.1.15,2013-08-12 23:27:00,
2013-08-12 19:28:00,75.7,74.5,29.98,SW,227,0.0,9.0,96,0.12,,,0.90,Wunderground v.1.15,2013-08-12 23:28:00,
2013-08-12 19:30:00,75.6,74.4,29.98,SW,227,0.0,9.0,96,0.09,,,0.90,Wunderground v.1.15,2013-08-12 23:30:00,
2013-08-12 19:32:00,75.5,74.3,29.98,SW,227,0.0,9.0,96,0.07,,,0.90,Wunderground v.1.15,2013-08-12 23:32:00,
2013-08-12 19:34:00,75.4,74.2,29.98,SW,227,0.0,9.0,96,0.06,,,0.90,Wunderground v.1.15,2013-08-12 23:34:00,
2013-08-12 19:37:00,75.3,74.1,29.98,SW,227,0.0,9.0,96,0.04,,,0.90,Wunderground v.1.15,2013-08-12 23:37:00,
2013-08-12 19:39:00,75.3,74.4,29.98,SW,227,0.0,9.0,97,0.04,,,0.90,Wunderground v.1.15,2013-08-12 23:39:00,
2013-08-12 19:40:00,75.2,74.3,29.98,SW,227,0.0,9.0,97,0.04,,,0.90,Wunderground v.1.15,2013-08-12 23:40:00,
2013-08-12 19:44:00,74.9,74.0,29.99,SW,227,0.0,9.0,97,0.00,,,0.90,Wunderground v.1.15,2013-08-12 23:44:00,
2013-08-12 19:46:00,74.8,73.9,29.99,SW,227,0.0,9.0,97,0.00,,,0.90,Wunderground v.1.15,2013-08-12 23:46:00,
2013-08-12 19:47:00,74.8,73.9,29.99,SW,227,0.0,9.0,97,0.00,,,0.90,Wunderground v.1.15,2013-08-12 23:47:00,
2013-08-12 19:50:00,74.7,73.8,29.99,SW,227,0.0,9.0,97,0.00,,,0.90,Wunderground v.1.15,2013-08-12 23:50:00,
2013-08-12 19:52:00,74.6,74.0,29.98,South,184,0.0,9.0,98,0.00,,,0.90,Wunderground v.1.15,2013-08-12 23:52:00,
2013-08-12 19:53:00,74.6,74.0,29.98,South,190,0.0,9.0,98,0.00,,,0.90,Wunderground v.1.15,2013-08-12 23:53:00,
2013-08-12 19:55:00,74.6,74.0,29.98,SSW,202,0.0,9.0,98,0.00,,,0.90,Wunderground v.1.15,2013-08-12 23:55:00,
2013-08-12 19:57:00,74.6,74.0,29.99,WSW,238,0.0,9.0,98,0.00,,,0.90,Wunderground v.1.15,2013-08-12 23:57:00,
2013-08-12 19:59:00,74.6,74.0,29.99,WSW,238,0.0,9.0,98,0.00,,,0.90,Wunderground v.1.15,2013-08-12 23:59:00,
2013-08-12 20:02:00,74.5,73.9,29.99,WSW,238,0.0,9.0,98,0.00,,,0.90,Wunderground v.1.15,2013-08-13 00:02:00,
2013-08-12 20:05:00,74.5,73.9,29.99,WSW,238,0.0,9.0,98,0.00,,,0.90,Wunderground v.1.15,2013-08-13 00:05:00,
2013-08-12 20:09:00,74.6,74.0,29.99,WSW,238,0.0,9.0,98,0.00,,,0.90,Wunderground v.1.15,2013-08-13 00:09:00,
2013-08-12 20:11:00,74.6,74.0,29.99,WSW,238,0.0,9.0,98,0.00,,,0.90,Wunderground v.1.15,2013-08-13 00:11:00,
2013-08-12 20:12:00,74.6,74.0,29.99,WSW,238,0.0,9.0,98,0.00,,,0.90,Wunderground v.1.15,2013-08-13 00:12:00,
2013-08-12 20:13:00,74.6,74.0,29.99,WSW,238,0.0,9.0,98,0.00,,,0.90,Wunderground v.1.15,2013-08-13 00:13:00,
2013-08-12 20:14:00,74.6,74.0,29.99,WSW,238,0.0,9.0,98,0.00,,,0.90,Wunderground v.1.15,2013-08-13 00:14:00,
2013-08-12 20:17:00,74.6,74.0,29.99,WSW,238,0.0,9.0,98,0.00,,,0.90,Wunderground v.1.15,2013-08-13 00:17:00,
2013-08-12 20:21:00,74.5,73.9,29.99,WSW,238,0.0,9.0,98,0.00,,,0.90,Wunderground v.1.15,2013-08-13 00:21:00,
2013-08-12 20:22:00,74.5,73.9,29.99,WSW,238,0.0,9.0,98,0.00,,,0.90,Wunderground v.1.15,2013-08-13 00:22:00,
2013-08-12 20:23:00,74.5,73.9,29.99,WSW,238,0.0,9.0,98,0.00,,,0.90,Wunderground v.1.15,2013-08-13 00:23:00,
2013-08-12 20:26:00,74.4,73.8,29.99,WSW,238,0.0,9.0,98,0.00,,,0.90,Wunderground v.1.15,2013-08-13 00:26:00,
2013-08-12 20:31:00,74.4,73.8,29.98,WSW,238,0.0,9.0,98,0.00,,,0.90,Wunderground v.1.15,2013-08-13 00:31:00,
2013-08-12 20:32:00,74.4,73.8,29.98,WSW,238,0.0,9.0,98,0.00,,,0.90,Wunderground v.1.15,2013-08-13 00:32:00,
2013-08-12 20:33:00,74.4,73.8,29.98,WSW,238,0.0,9.0,98,0.00,,,0.90,Wunderground v.1.15,2013-08-13 00:33:00,
2013-08-12 20:34:00,74.4,73.8,29.98,WSW,238,0.0,9.0,98,0.00,,,0.90,Wunderground v.1.15,2013-08-13 00:34:00,
2013-08-12 20:36:00,74.4,73.8,29.98,WSW,238,0.0,9.0,98,0.00,,,0.90,Wunderground v.1.15,2013-08-13 00:36:00,
2013-08-12 20:38:00,74.4,73.8,29.97,WSW,238,0.0,9.0,98,0.00,,,0.90,Wunderground v.1.15,2013-08-13 00:38:00,
2013-08-12 20:39:00,74.4,73.8,29.97,WSW,238,0.0,9.0,98,0.00,,,0.90,Wunderground v.1.15,2013-08-13 00:39:00,
2013-08-12 20:41:00,74.3,73.7,29.97,WSW,238,0.0,9.0,98,0.00,,,0.90,Wunderground v.1.15,2013-08-13 00:41:00,
2013-08-12 20:42:00,74.3,73.7,29.97,WSW,238,0.0,9.0,98,0.00,,,0.91,Wunderground v.1.15,2013-08-13 00:42:00,
2013-08-12 20:43:00,74.3,73.7,29.97,WSW,238,0.0,9.0,98,0.00,,,0.91,Wunderground v.1.15,2013-08-13 00:43:00,
2013-08-12 20:44:00,74.3,73.7,29.97,WSW,238,0.0,9.0,98,0.00,,,0.91,Wunderground v.1.15,2013-08-13 00:44:00,
2013-08-12 20:46:00,74.3,73.7,29.96,WSW,238,0.0,9.0,98,0.19,,,0.92,Wunderground v.1.15,2013-08-13 00:46:00,
2013-08-12 20:48:00,74.3,73.7,29.96,WSW,238,0.0,9.0,98,0.14,,,0.92,Wunderground v.1.15,2013-08-13 00:48:00,
2013-08-12 20:50:00,74.2,73.6,29.96,WSW,238,0.0,9.0,98,0.10,,,0.92,Wunderground v.1.15,2013-08-13 00:50:00,
2013-08-12 20:51:00,74.2,73.6,29.96,WSW,238,0.0,9.0,98,0.10,,,0.93,Wunderground v.1.15,2013-08-13 00:51:00,
2013-08-12 20:54:00,74.2,73.6,29.96,WSW,238,0.0,9.0,98,0.10,,,0.93,Wunderground v.1.15,2013-08-13 00:54:00,
2013-08-12 20:56:00,74.1,73.5,29.96,WSW,238,0.0,9.0,98,0.10,,,0.93,Wunderground v.1.15,2013-08-13 00:56:00,
2013-08-12 20:58:00,74.1,73.5,29.96,WSW,238,0.0,9.0,98,0.07,,,0.93,Wunderground v.1.15,2013-08-13 00:58:00,
2013-08-12 21:02:00,74.0,73.7,29.97,WSW,238,0.0,9.0,99,0.05,,,0.93,Wunderground v.1.15,2013-08-13 01:02:00,
2013-08-12 21:03:00,74.0,73.7,29.97,SW,221,0.0,9.0,99,0.05,,,0.93,Wunderground v.1.15,2013-08-13 01:03:00,
2013-08-12 21:04:00,74.0,73.7,29.97,SSW,202,0.0,9.0,99,0.04,,,0.93,Wunderground v.1.15,2013-08-13 01:04:00,
2013-08-12 21:09:00,74.0,73.7,29.97,SW,227,0.0,9.0,99,0.00,,,0.93,Wunderground v.1.15,2013-08-13 01:09:00,
2013-08-12 21:10:00,74.0,73.7,29.97,SW,227,0.0,9.0,99,0.00,,,0.93,Wunderground v.1.15,2013-08-13 01:10:00,
2013-08-12 21:12:00,74.0,73.7,29.97,SW,227,0.0,9.0,99,0.00,,,0.93,Wunderground v.1.15,2013-08-13 01:12:00,
2013-08-12 21:13:00,74.0,73.7,29.97,WSW,237,0.0,9.0,99,0.00,,,0.93,Wunderground v.1.15,2013-08-13 01:13:00,
2013-08-12 21:14:00,74.0,73.7,29.97,WSW,237,0.0,9.0,99,0.00,,,0.93,Wunderground v.1.15,2013-08-13 01:14:00,
2013-08-12 21:16:00,74.0,73.7,29.97,WSW,249,0.0,9.0,99,0.00,,,0.93,Wunderground v.1.15,2013-08-13 01:16:00,
2013-08-12 21:18:00,74.0,73.7,29.97,SW,225,0.0,9.0,99,0.00,,,0.93,Wunderground v.1.15,2013-08-13 01:18:00,
2013-08-12 21:19:00,74.0,73.7,29.97,SW,224,0.0,9.0,99,0.00,,,0.93,Wunderground v.1.15,2013-08-13 01:19:00,
2013-08-12 21:22:00,74.0,73.7,29.96,SW,234,1.0,9.0,99,0.00,,,0.93,Wunderground v.1.15,2013-08-13 01:22:00,
2013-08-12 21:23:00,74.0,73.7,29.96,SSW,207,1.0,9.0,99,0.00,,,0.93,Wunderground v.1.15,2013-08-13 01:23:00,
2013-08-12 21:25:00,74.0,73.7,29.96,SSW,202,1.0,9.0,99,0.00,,,0.93,Wunderground v.1.15,2013-08-13 01:25:00,
2013-08-12 21:26:00,74.0,73.7,29.96,WSW,245,1.0,9.0,99,0.00,,,0.93,Wunderground v.1.15,2013-08-13 01:26:00,
2013-08-12 21:29:00,74.0,73.7,29.96,SW,234,1.0,9.0,99,0.00,,,0.93,Wunderground v.1.15,2013-08-13 01:29:00,
2013-08-12 21:30:00,74.0,73.7,29.96,WSW,237,1.0,9.0,99,0.00,,,0.93,Wunderground v.1.15,2013-08-13 01:30:00,
2013-08-12 21:31:00,74.0,73.7,29.96,SSW,199,1.0,9.0,99,0.00,,,0.93,Wunderground v.1.15,2013-08-13 01:31:00,
2013-08-12 21:32:00,74.0,73.7,29.96,SW,217,1.0,9.0,99,0.00,,,0.93,Wunderground v.1.15,2013-08-13 01:32:00,
2013-08-12 21:36:00,74.0,73.7,29.96,SSW,213,1.0,9.0,99,0.00,,,0.93,Wunderground v.1.15,2013-08-13 01:36:00,
2013-08-12 21:37:00,74.0,73.7,29.96,SW,215,1.0,9.0,99,0.00,,,0.93,Wunderground v.1.15,2013-08-13 01:37:00,
2013-08-12 21:38:00,74.0,73.7,29.96,WSW,250,1.0,9.0,99,0.00,,,0.93,Wunderground v.1.15,2013-08-13 01:38:00,
2013-08-12 21:41:00,74.0,73.7,29.97,WSW,246,1.0,9.0,99,0.00,,,0.93,Wunderground v.1.15,2013-08-13 01:41:00,
2013-08-12 21:42:00,73.9,73.6,29.97,West,281,1.0,9.0,99,0.00,,,0.93,Wunderground v.1.15,2013-08-13 01:42:00,
2013-08-12 21:43:00,73.9,73.6,29.97,WNW,286,1.0,9.0,99,0.00,,,0.93,Wunderground v.1.15,2013-08-13 01:43:00,
2013-08-12 21:44:00,73.9,73.6,29.97,WSW,245,1.0,9.0,99,0.00,,,0.93,Wunderground v.1.15,2013-08-13 01:44:00,
2013-08-12 21:46:00,73.9,73.6,29.97,West,261,1.0,9.0,99,0.00,,,0.93,Wunderground v.1.15,2013-08-13 01:46:00,
2013-08-12 21:47:00,73.9,73.6,29.97,SW,234,1.0,9.0,99,0.00,,,0.93,Wunderground v.1.15,2013-08-13 01:47:00,
2013-08-12 21:48:00,73.9,73.6,29.97,West,264,1.0,9.0,99,0.00,,,0.93,Wunderground v.1.15,2013-08-13 01:48:00,
2013-08-12 21:49:00,73.9,73.6,29.97,West,273,1.0,9.0,99,0.00,,,0.93,Wunderground v.1.15,2013-08-13 01:49:00,
2013-08-12 21:51:00,73.9,73.6,29.97,SW,232,1.0,9.0,99,0.00,,,0.93,Wunderground v.1.15,2013-08-13 01:51:00,
2013-08-12 21:53:00,73.8,73.2,29.97,SW,236,2.0,9.0,98,0.00,,,0.93,Wunderground v.1.15,2013-08-13 01:53:00,
2013-08-12 21:54:00,73.8,73.2,29.97,WSW,239,2.0,9.0,98,0.00,,,0.93,Wunderground v.1.15,2013-08-13 01:54:00,
2013-08-12 21:57:00,73.8,73.2,29.97,WSW,239,2.0,9.0,98,0.00,,,0.93,Wunderground v.1.15,2013-08-13 01:57:00,
2013-08-12 21:58:00,73.7,73.1,29.97,West,277,3.0,9.0,98,0.00,,,0.93,Wunderground v.1.15,2013-08-13 01:58:00,
2013-08-12 21:59:00,73.6,73.0,29.97,NW,319,3.0,12.0,98,0.00,,,0.93,Wunderground v.1.15,2013-08-13 01:59:00,
2013-08-12 22:02:00,73.4,72.5,29.97,SW,221,3.0,9.0,97,0.00,,,0.93,Wunderground v.1.15,2013-08-13 02:02:00,
2013-08-12 22:04:00,73.3,72.1,29.97,WNW,286,3.0,9.0,96,0.00,,,0.93,Wunderground v.1.15,2013-08-13 02:04:00,
2013-08-12 22:05:00,73.3,72.1,29.97,West,279,3.0,9.0,96,0.00,,,0.93,Wunderground v.1.15,2013-08-13 02:05:00,
2013-08-12 22:09:00,72.9,71.7,29.97,West,263,2.0,9.0,96,0.00,,,0.93,Wunderground v.1.15,2013-08-13 02:09:00,
2013-08-12 22:10:00,72.8,71.6,29.97,West,269,2.0,9.0,96,0.00,,,0.93,Wunderground v.1.15,2013-08-13 02:10:00,
2013-08-12 22:13:00,72.6,71.1,29.97,SW,215,2.0,9.0,95,0.00,,,0.93,Wunderground v.1.15,2013-08-13 02:13:00,
2013-08-12 22:15:00,72.4,71.2,29.97,SW,236,2.0,9.0,96,0.00,,,0.94,Wunderground v.1.15,2013-08-13 02:15:00,
2013-08-12 22:16:00,72.3,70.8,29.97,WSW,247,2.0,9.0,95,0.00,,,0.94,Wunderground v.1.15,2013-08-13 02:16:00,
2013-08-12 22:19:00,72.2,71.0,29.97,SW,230,2.0,9.0,96,0.00,,,0.94,Wunderground v.1.15,2013-08-13 02:19:00,
2013-08-12 22:20:00,72.1,70.9,29.97,NW,304,2.0,9.0,96,0.00,,,0.94,Wunderground v.1.15,2013-08-13 02:20:00,
2013-08-12 22:23:00,71.7,70.2,29.97,West,266,2.0,9.0,95,0.00,,,0.94,Wunderground v.1.15,2013-08-13 02:23:00,
2013-08-12 22:26:00,71.3,69.8,29.97,West,279,2.0,9.0,95,0.00,,,0.94,Wunderground v.1.15,2013-08-13 02:26:00,
2013-08-12 22:28:00,71.1,69.6,29.97,West,259,2.0,9.0,95,0.04,,,0.95,Wunderground v.1.15,2013-08-13 02:28:00,
2013-08-12 22:31:00,70.8,69.6,29.97,SW,214,2.0,9.0,96,0.04,,,0.95,Wunderground v.1.15,2013-08-13 02:31:00,
2013-08-12 22:32:00,70.7,69.5,29.97,SW,230,2.0,9.0,96,0.04,,,0.95,Wunderground v.1.15,2013-08-13 02:32:00,
2013-08-12 22:36:00,70.4,69.2,29.97,WSW,250,2.0,9.0,96,0.04,,,0.95,Wunderground v.1.15,2013-08-13 02:36:00,
2013-08-12 22:38:00,70.3,69.4,29.97,WNW,301,2.0,9.0,97,0.04,,,0.95,Wunderground v.1.15,2013-08-13 02:38:00,
2013-08-12 22:39:00,70.2,69.0,29.97,WSW,250,2.0,9.0,96,0.04,,,0.95,Wunderground v.1.15,2013-08-13 02:39:00,
2013-08-12 22:41:00,70.1,68.9,29.97,SW,225,3.0,3.0,96,0.04,,,0.95,Wunderground v.1.15,2013-08-13 02:41:00,
2013-08-12 22:43:00,70.1,69.2,29.96,SW,234,3.0,9.0,97,0.04,,,0.95,Wunderground v.1.15,2013-08-13 02:43:00,
2013-08-12 22:45:00,70.0,69.1,29.96,WSW,257,2.0,9.0,97,0.00,,,0.95,Wunderground v.1.15,2013-08-13 02:45:00,
2013-08-12 22:46:00,69.9,69.0,29.96,WNW,292,2.0,9.0,97,0.00,,,0.95,Wunderground v.1.15,2013-08-13 02:46:00,
2013-08-12 22:49:00,69.9,69.0,29.97,WSW,256,2.0,9.0,97,0.00,,,0.95,Wunderground v.1.15,2013-08-13 02:49:00,
2013-08-12 22:51:00,69.8,69.2,29.97,WNW,286,1.0,9.0,98,0.00,,,0.95,Wunderground v.1.15,2013-08-13 02:51:00,
2013-08-12 22:52:00,69.7,69.1,29.97,NW,310,2.0,9.0,98,0.00,,,0.95,Wunderground v.1.15,2013-08-13 02:52:00,
2013-08-12 22:56:00,69.6,69.0,29.98,WNW,282,1.0,9.0,98,0.00,,,0.95,Wunderground v.1.15,2013-08-13 02:56:00,
2013-08-12 22:57:00,69.6,69.0,29.98,West,267,1.0,9.0,98,0.00,,,0.95,Wunderground v.1.15,2013-08-13 02:57:00,
2013-08-12 22:58:00,69.5,68.9,29.97,West,261,2.0,9.0,98,0.00,,,0.95,Wunderground v.1.15,2013-08-13 02:58:00,
2013-08-12 22:59:00,69.5,68.9,29.98,West,267,2.0,9.0,98,0.00,,,0.95,Wunderground v.1.15,2013-08-13 02:59:00,
2013-08-12 23:04:00,69.4,68.8,29.98,West,263,1.0,9.0,98,0.00,,,0.95,Wunderground v.1.15,2013-08-13 03:04:00,
2013-08-12 23:05:00,69.4,68.8,29.98,SW,234,1.0,9.0,98,0.00,,,0.95,Wunderground v.1.15,2013-08-13 03:05:00,
2013-08-12 23:06:00,69.4,68.8,29.98,West,275,1.0,9.0,98,0.00,,,0.95,Wunderground v.1.15,2013-08-13 03:06:00,
2013-08-12 23:10:00,69.3,68.7,29.97,WSW,254,2.0,9.0,98,0.00,,,0.95,Wunderground v.1.15,2013-08-13 03:10:00,
2013-08-12 23:11:00,69.3,68.7,29.97,WSW,257,2.0,2.0,98,0.00,,,0.95,Wunderground v.1.15,2013-08-13 03:11:00,
2013-08-12 23:12:00,69.3,69.0,29.97,SW,231,2.0,7.0,99,0.00,,,0.95,Wunderground v.1.15,2013-08-13 03:12:00,
2013-08-12 23:14:00,69.2,68.9,29.97,SW,234,2.0,9.0,99,0.00,,,0.95,Wunderground v.1.15,2013-08-13 03:14:00,
2013-08-12 23:16:00,69.2,68.9,29.98,NW,306,2.0,9.0,99,0.00,,,0.95,Wunderground v.1.15,2013-08-13 03:16:00,
2013-08-12 23:19:00,69.2,68.6,29.97,SSW,211,2.0,9.0,98,0.00,,,0.95,Wunderground v.1.15,2013-08-13 03:19:00,
2013-08-12 23:20:00,69.1,68.5,29.97,SSW,213,2.0,9.0,98,0.00,,,0.95,Wunderground v.1.15,2013-08-13 03:20:00,
2013-08-12 23:21:00,69.2,68.6,29.97,West,265,2.0,9.0,98,0.00,,,0.95,Wunderground v.1.15,2013-08-13 03:21:00,
2013-08-12 23:22:00,69.1,68.5,29.97,WNW,294,2.0,9.0,98,0.00,,,0.95,Wunderground v.1.15,2013-08-13 03:22:00,
2013-08-12 23:23:00,69.1,68.5,29.97,WSW,254,2.0,9.0,98,0.00,,,0.95,Wunderground v.1.15,2013-08-13 03:23:00,
2013-08-12 23:27:00,69.0,68.4,29.97,WSW,237,3.0,9.0,98,0.00,,,0.95,Wunderground v.1.15,2013-08-13 03:27:00,
2013-08-12 23:28:00,69.0,68.4,29.97,SW,215,3.0,9.0,98,0.00,,,0.95,Wunderground v.1.15,2013-08-13 03:28:00,
2013-08-12 23:32:00,68.9,68.3,29.97,WNW,288,2.0,9.0,98,0.00,,,0.95,Wunderground v.1.15,2013-08-13 03:32:00,
2013-08-12 23:33:00,68.9,68.3,29.97,SW,221,2.0,9.0,98,0.00,,,0.95,Wunderground v.1.15,2013-08-13 03:33:00,
2013-08-12 23:34:00,68.9,68.3,29.97,WSW,238,1.0,9.0,98,0.00,,,0.95,Wunderground v.1.15,2013-08-13 03:34:00,
2013-08-12 23:35:00,68.8,68.2,29.97,West,271,1.0,9.0,98,0.00,,,0.95,Wunderground v.1.15,2013-08-13 03:35:00,
2013-08-12 23:39:00,68.8,68.2,29.97,WSW,257,1.0,9.0,98,0.00,,,0.95,Wunderground v.1.15,2013-08-13 03:39:00,
2013-08-12 23:40:00,68.7,68.1,29.97,WSW,240,1.0,9.0,98,0.00,,,0.95,Wunderground v.1.15,2013-08-13 03:40:00,
2013-08-12 23:42:00,68.7,68.1,29.97,WNW,292,0.0,9.0,98,0.00,,,0.95,Wunderground v.1.15,2013-08-13 03:42:00,
2013-08-12 23:43:00,68.7,68.1,29.97,West,280,0.0,9.0,98,0.00,,,0.95,Wunderground v.1.15,2013-08-13 03:43:00,
2013-08-12 23:44:00,68.7,68.1,29.97,WNW,285,0.0,9.0,98,0.00,,,0.95,Wunderground v.1.15,2013-08-13 03:44:00,
2013-08-12 23:46:00,68.7,68.1,29.97,SW,232,0.0,9.0,98,0.00,,,0.95,Wunderground v.1.15,2013-08-13 03:46:00,
2013-08-12 23:47:00,68.6,68.0,29.97,WNW,290,0.0,9.0,98,0.00,,,0.95,Wunderground v.1.15,2013-08-13 03:47:00,
2013-08-12 23:53:00,68.6,68.0,29.97,WNW,291,1.0,9.0,98,0.00,,,0.95,Wunderground v.1.15,2013-08-13 03:53:00,
2013-08-12 23:54:00,68.5,67.9,29.97,West,265,1.0,9.0,98,0.00,,,0.95,Wunderground v.1.15,2013-08-13 03:54:00,
2013-08-12 23:56:00,68.5,67.9,29.98,West,281,0.0,9.0,98,0.00,,,0.95,Wunderground v.1.15,2013-08-13 03:56:00,
2013-08-12 23:58:00,68.5,67.9,29.97,SW,234,0.0,9.0,98,0.00,,,0.95,Wunderground v.1.15,2013-08-13 03:58:00,